Time,TemperatureF,DewpointF,PressureIn,WindDirection,WindDirectionDegrees,WindSpeedMPH,WindSpeedGustMPH,Humidity,HourlyPrecipIn,Conditions,Clouds,dailyrainin,SoftwareType,DateUTC
2013-01-30 00:00:00,55.8,33.1,-100.00,West,263,5.0,23.0,42,0.00,,,0.41,meteohub,2013-01-30 06:00:00,
2013-01-30 00:01:00,55.8,33.6,-100.00,West,273,8.0,23.0,43,0.00,,,0.41,meteohub,2013-01-30 06:01:00,
2013-01-30 00:02:00,55.8,34.2,-100.00,WNW,284,10.0,23.0,44,0.00,,,0.41,meteohub,2013-01-30 06:02:00,
2013-01-30 00:06:00,55.6,34.0,-100.00,West,266,9.0,23.0,44,0.00,,,0.00,meteohub,2013-01-30 06:06:00,
2013-01-30 00:07:00,55.4,33.3,-100.00,WNW,293,11.0,23.0,43,0.00,,,0.00,meteohub,2013-01-30 06:07:00,
2013-01-30 00:20:00,54.9,33.4,-100.00,WSW,257,10.0,17.0,44,0.00,,,0.00,meteohub,2013-01-30 06:20:00,
2013-01-30 00:25:00,54.5,31.8,-100.00,West,270,12.0,17.0,42,0.00,,,0.00,meteohub,2013-01-30 06:25:00,
2013-01-30 00:26:00,54.7,32.0,-100.00,WNW,301,11.0,19.0,42,0.00,,,0.00,meteohub,2013-01-30 06:26:00,
2013-01-30 01:32:00,54.1,28.4,-100.00,WNW,286,6.0,19.0,37,0.00,,,0.00,meteohub,2013-01-30 07:32:00,
2013-01-30 01:37:00,54.0,28.9,-100.00,West,279,12.0,19.0,38,0.00,,,0.00,meteohub,2013-01-30 07:37:00,
2013-01-30 01:38:00,54.0,28.9,-100.00,WSW,252,5.0,19.0,38,0.00,,,0.00,meteohub,2013-01-30 07:38:00,
2013-01-30 01:42:00,53.8,29.5,-100.00,WSW,254,3.0,19.0,39,0.00,,,0.00,meteohub,2013-01-30 07:42:00,
2013-01-30 01:43:00,53.8,30.0,-100.00,West,273,9.0,19.0,40,0.00,,,0.00,meteohub,2013-01-30 07:43:00,
2013-01-30 01:47:00,53.4,29.1,-100.00,West,271,6.0,16.0,39,0.00,,,0.00,meteohub,2013-01-30 07:47:00,
2013-01-30 01:48:00,53.4,28.4,-100.00,WSW,255,4.0,16.0,38,0.00,,,0.00,meteohub,2013-01-30 07:48:00,
2013-01-30 01:52:00,53.2,28.2,-100.00,West,264,2.0,16.0,38,0.00,,,0.00,meteohub,2013-01-30 07:52:00,
2013-01-30 01:53:00,53.2,28.9,-100.00,West,265,6.0,16.0,39,0.00,,,0.00,meteohub,2013-01-30 07:53:00,
2013-01-30 01:58:00,53.2,28.9,-100.00,WSW,254,6.0,17.0,39,0.00,,,0.00,meteohub,2013-01-30 07:58:00,
2013-01-30 01:59:00,53.1,28.8,-100.00,WSW,258,4.0,17.0,39,0.00,,,0.00,meteohub,2013-01-30 07:59:00,
2013-01-30 02:03:00,52.9,28.6,-100.00,WSW,257,11.0,17.0,39,0.00,,,0.00,meteohub,2013-01-30 08:03:00,
2013-01-30 02:04:00,52.9,28.6,-100.00,West,267,9.0,17.0,39,0.00,,,0.00,meteohub,2013-01-30 08:04:00,
2013-01-30 02:11:00,52.5,28.9,-100.00,West,260,4.0,14.0,40,0.00,,,0.00,meteohub,2013-01-30 08:11:00,
2013-01-30 02:16:00,52.5,29.5,-100.00,WSW,254,6.0,13.0,41,0.00,,,0.00,meteohub,2013-01-30 08:16:00,
2013-01-30 02:17:00,52.3,28.8,-100.00,WSW,251,2.0,13.0,40,0.00,,,0.00,meteohub,2013-01-30 08:17:00,
2013-01-30 02:21:00,52.2,29.1,-100.00,WSW,246,7.0,14.0,41,0.00,,,0.00,meteohub,2013-01-30 08:21:00,
2013-01-30 02:22:00,52.2,29.1,-100.00,WSW,244,6.0,14.0,41,0.00,,,0.00,meteohub,2013-01-30 08:22:00,
2013-01-30 02:26:00,52.0,29.7,-100.00,WSW,252,5.0,14.0,42,0.00,,,0.00,meteohub,2013-01-30 08:26:00,
2013-01-30 02:27:00,52.0,29.7,-100.00,WSW,250,10.0,14.0,42,0.00,,,0.00,meteohub,2013-01-30 08:27:00,
2013-01-30 02:31:00,51.6,29.8,-100.00,West,259,6.0,12.0,43,0.00,,,0.00,meteohub,2013-01-30 08:31:00,
2013-01-30 02:32:00,51.6,29.8,-100.00,West,259,4.0,12.0,43,0.00,,,0.00,meteohub,2013-01-30 08:32:00,
2013-01-30 02:33:00,51.6,29.8,-100.00,West,259,4.0,12.0,43,0.00,,,0.00,meteohub,2013-01-30 08:33:00,
2013-01-30 02:37:00,51.3,28.9,-100.00,West,265,3.0,11.0,42,0.00,,,0.00,meteohub,2013-01-30 08:37:00,
2013-01-30 02:38:00,51.3,29.5,-100.00,West,265,3.0,11.0,43,0.00,,,0.00,meteohub,2013-01-30 08:38:00,
2013-01-30 02:42:00,51.1,29.3,-100.00,West,274,1.0,13.0,43,0.00,,,0.00,meteohub,2013-01-30 08:42:00,
2013-01-30 02:43:00,51.1,29.3,-100.00,West,261,6.0,13.0,43,0.00,,,0.00,meteohub,2013-01-30 08:43:00,
2013-01-30 02:47:00,51.1,29.3,-100.00,WSW,258,3.0,13.0,43,0.00,,,0.00,meteohub,2013-01-30 08:47:00,
2013-01-30 02:48:00,51.1,28.8,-100.00,WSW,257,11.0,13.0,42,0.00,,,0.00,meteohub,2013-01-30 08:48:00,
2013-01-30 02:52:00,51.1,28.8,-100.00,West,270,9.0,14.0,42,0.00,,,0.00,meteohub,2013-01-30 08:52:00,
2013-01-30 02:53:00,51.1,28.8,-100.00,West,271,5.0,14.0,42,0.00,,,0.00,meteohub,2013-01-30 08:53:00,
2013-01-30 02:57:00,51.1,28.8,-100.00,WSW,256,6.0,15.0,42,0.00,,,0.00,meteohub,2013-01-30 08:57:00,
2013-01-30 02:58:00,51.1,28.8,-100.00,West,264,3.0,15.0,42,0.00,,,0.00,meteohub,2013-01-30 08:58:00,
2013-01-30 02:59:00,51.1,28.8,-100.00,West,263,6.0,15.0,42,0.00,,,0.00,meteohub,2013-01-30 08:59:00,
2013-01-30 03:02:00,51.1,28.8,-100.00,West,261,4.0,15.0,42,0.00,,,0.00,meteohub,2013-01-30 09:02:00,
2013-01-30 03:03:00,51.1,28.8,-100.00,West,261,7.0,15.0,42,0.00,,,0.00,meteohub,2013-01-30 09:03:00,
2013-01-30 03:04:00,51.1,28.8,-100.00,WSW,257,2.0,15.0,42,0.00,,,0.00,meteohub,2013-01-30 09:04:00,
2013-01-30 03:05:00,51.1,28.8,-100.00,WSW,254,7.0,15.0,42,0.00,,,0.00,meteohub,2013-01-30 09:05:00,
2013-01-30 03:07:00,50.7,27.9,-100.00,WSW,255,5.0,15.0,41,0.00,,,0.00,meteohub,2013-01-30 09:07:00,
2013-01-30 03:09:00,50.7,28.4,-100.00,West,264,4.0,15.0,42,0.00,,,0.00,meteohub,2013-01-30 09:09:00,
2013-01-30 03:11:00,50.7,27.9,-100.00,West,261,6.0,14.0,41,0.00,,,0.00,meteohub,2013-01-30 09:11:00,
2013-01-30 03:13:00,50.7,26.6,-100.00,WNW,296,9.0,14.0,39,0.00,,,0.00,meteohub,2013-01-30 09:13:00,
2013-01-30 03:14:00,51.1,27.0,-100.00,WSW,244,4.0,14.0,39,0.00,,,0.00,meteohub,2013-01-30 09:14:00,
2013-01-30 03:16:00,51.1,28.2,-100.00,West,275,9.0,16.0,41,0.00,,,0.00,meteohub,2013-01-30 09:16:00,
2013-01-30 03:18:00,51.1,27.7,-100.00,WSW,255,9.0,16.0,40,0.00,,,0.00,meteohub,2013-01-30 09:18:00,
2013-01-30 03:19:00,51.1,28.2,-100.00,WNW,282,11.0,16.0,41,0.00,,,0.00,meteohub,2013-01-30 09:19:00,
2013-01-30 03:20:00,51.1,28.2,-100.00,WSW,255,10.0,16.0,41,0.00,,,0.00,meteohub,2013-01-30 09:20:00,
2013-01-30 03:22:00,51.1,27.7,-100.00,WNW,288,6.0,19.0,40,0.00,,,0.00,meteohub,2013-01-30 09:22:00,
2013-01-30 03:24:00,51.1,27.0,-100.00,WNW,283,14.0,19.0,39,0.00,,,0.00,meteohub,2013-01-30 09:24:00,
2013-01-30 03:25:00,51.1,27.0,-100.00,West,259,6.0,19.0,39,0.00,,,0.00,meteohub,2013-01-30 09:25:00,
2013-01-30 03:27:00,51.1,27.0,-100.00,West,269,9.0,21.0,39,0.00,,,0.00,meteohub,2013-01-30 09:27:00,
2013-01-30 03:29:00,51.1,27.7,-100.00,WNW,284,8.0,21.0,40,0.00,,,0.00,meteohub,2013-01-30 09:29:00,
2013-01-30 03:30:00,51.1,27.0,-100.00,West,275,3.0,21.0,39,0.00,,,0.00,meteohub,2013-01-30 09:30:00,
2013-01-30 03:33:00,51.1,27.0,-100.00,WNW,296,14.0,21.0,39,0.00,,,0.00,meteohub,2013-01-30 09:33:00,
2013-01-30 03:34:00,51.1,27.7,-100.00,West,280,8.0,21.0,40,0.00,,,0.00,meteohub,2013-01-30 09:34:00,
2013-01-30 03:35:00,51.1,27.7,-100.00,WNW,284,9.0,21.0,40,0.00,,,0.00,meteohub,2013-01-30 09:35:00,
2013-01-30 03:38:00,51.1,27.0,-100.00,WNW,287,11.0,21.0,39,0.00,,,0.00,meteohub,2013-01-30 09:38:00,
2013-01-30 03:39:00,51.1,27.0,-100.00,WNW,287,6.0,21.0,39,0.00,,,0.00,meteohub,2013-01-30 09:39:00,
2013-01-30 03:40:00,51.1,27.0,-100.00,West,271,11.0,21.0,39,0.00,,,0.00,meteohub,2013-01-30 09:40:00,
2013-01-30 03:41:00,51.1,27.0,-100.00,WNW,301,17.0,22.0,39,0.00,,,0.00,meteohub,2013-01-30 09:41:00,
2013-01-30 03:44:00,51.1,26.4,-100.00,WNW,297,11.0,22.0,38,0.00,,,0.00,meteohub,2013-01-30 09:44:00,
2013-01-30 03:46:00,51.1,27.0,-100.00,WNW,294,11.0,22.0,39,0.00,,,0.00,meteohub,2013-01-30 09:46:00,
2013-01-30 03:49:00,50.7,27.3,-100.00,WNW,291,10.0,22.0,40,0.00,,,0.00,meteohub,2013-01-30 09:49:00,
2013-01-30 03:50:00,50.7,27.3,-100.00,NW,304,10.0,22.0,40,0.00,,,0.00,meteohub,2013-01-30 09:50:00,
2013-01-30 03:51:00,50.7,27.9,-100.00,WNW,296,10.0,22.0,41,0.00,,,0.00,meteohub,2013-01-30 09:51:00,
2013-01-30 03:52:00,50.7,27.9,-100.00,WNW,301,7.0,22.0,41,0.00,,,0.00,meteohub,2013-01-30 09:52:00,
2013-01-30 03:54:00,50.5,28.2,-100.00,WNW,296,11.0,22.0,42,0.00,,,0.00,meteohub,2013-01-30 09:54:00,
2013-01-30 03:55:00,50.4,28.8,-100.00,WNW,286,16.0,22.0,43,0.00,,,0.00,meteohub,2013-01-30 09:55:00,
2013-01-30 03:56:00,50.4,28.8,-100.00,WNW,292,11.0,19.0,43,0.00,,,0.00,meteohub,2013-01-30 09:56:00,
2013-01-30 03:57:00,50.4,29.3,-100.00,WNW,296,17.0,19.0,44,0.00,,,0.00,meteohub,2013-01-30 09:57:00,
2013-01-30 03:59:00,50.2,29.1,-100.00,WNW,300,10.0,19.0,44,0.00,,,0.00,meteohub,2013-01-30 09:59:00,
2013-01-30 04:00:00,50.2,29.1,-100.00,WNW,286,4.0,19.0,44,0.00,,,0.00,meteohub,2013-01-30 10:00:00,
2013-01-30 04:01:00,49.8,28.8,-100.00,WNW,282,4.0,19.0,44,0.00,,,0.00,meteohub,2013-01-30 10:01:00,
2013-01-30 04:02:00,49.8,29.3,-100.00,West,280,6.0,19.0,45,0.00,,,0.00,meteohub,2013-01-30 10:02:00,
2013-01-30 04:04:00,49.8,29.3,-100.00,WNW,284,7.0,19.0,45,0.00,,,0.00,meteohub,2013-01-30 10:04:00,
2013-01-30 04:05:00,49.6,29.1,-100.00,West,277,5.0,19.0,45,0.00,,,0.00,meteohub,2013-01-30 10:05:00,
2013-01-30 04:07:00,49.6,29.7,-100.00,WNW,295,11.0,17.0,46,0.00,,,0.00,meteohub,2013-01-30 10:07:00,
2013-01-30 04:10:00,49.5,30.0,-100.00,WNW,286,10.0,17.0,47,0.00,,,0.00,meteohub,2013-01-30 10:10:00,
2013-01-30 04:12:00,49.5,31.1,-100.00,WNW,294,12.0,18.0,49,0.00,,,0.00,meteohub,2013-01-30 10:12:00,
2013-01-30 04:15:00,49.5,31.1,-100.00,WNW,295,13.0,18.0,49,0.00,,,0.00,meteohub,2013-01-30 10:15:00,
2013-01-30 04:16:00,49.3,32.4,-100.00,WNW,296,13.0,18.0,52,0.00,,,0.00,meteohub,2013-01-30 10:16:00,
2013-01-30 04:17:00,49.3,33.8,-100.00,WNW,296,10.0,18.0,55,0.00,,,0.00,meteohub,2013-01-30 10:17:00,
2013-01-30 04:18:00,49.1,34.2,-100.00,NW,310,11.0,18.0,56,0.00,,,0.00,meteohub,2013-01-30 10:18:00,
2013-01-30 04:20:00,48.7,35.1,-100.00,NW,310,13.0,18.0,59,0.00,,,0.00,meteohub,2013-01-30 10:20:00,
2013-01-30 04:21:00,48.6,35.8,-100.00,NW,307,10.0,20.0,61,0.00,,,0.00,meteohub,2013-01-30 10:21:00,
2013-01-30 04:22:00,48.6,36.1,-100.00,NW,307,7.0,20.0,62,0.00,,,0.00,meteohub,2013-01-30 10:22:00,
2013-01-30 04:23:00,48.6,36.5,-100.00,NW,315,8.0,20.0,63,0.00,,,0.00,meteohub,2013-01-30 10:23:00,
2013-01-30 04:26:00,48.2,36.7,-100.00,NW,323,15.0,20.0,64,0.00,,,0.00,meteohub,2013-01-30 10:26:00,
2013-01-30 04:27:00,48.2,36.7,-100.00,WNW,302,11.0,20.0,64,0.00,,,0.00,meteohub,2013-01-30 10:27:00,
2013-01-30 04:28:00,48.0,36.9,-100.00,NW,309,16.0,20.0,65,0.00,,,0.00,meteohub,2013-01-30 10:28:00,
2013-01-30 04:32:00,47.7,37.6,-100.00,NW,315,11.0,20.0,68,0.00,,,0.00,meteohub,2013-01-30 10:32:00,
2013-01-30 04:33:00,47.7,37.6,-100.00,NNW,331,10.0,20.0,68,0.00,,,0.00,meteohub,2013-01-30 10:33:00,
2013-01-30 04:37:00,47.3,37.9,-100.00,NW,320,5.0,20.0,70,0.00,,,0.00,meteohub,2013-01-30 10:37:00,
2013-01-30 04:38:00,47.1,37.8,-100.00,NW,322,13.0,20.0,70,0.00,,,0.00,meteohub,2013-01-30 10:38:00,
2013-01-30 04:42:00,46.9,38.1,-100.00,NW,319,4.0,20.0,71,0.00,,,0.00,meteohub,2013-01-30 10:42:00,
2013-01-30 04:43:00,46.8,37.9,-100.00,NW,306,10.0,20.0,71,0.00,,,0.00,meteohub,2013-01-30 10:43:00,
2013-01-30 04:47:00,46.8,38.3,-100.00,NW,304,9.0,18.0,72,0.00,,,0.00,meteohub,2013-01-30 10:47:00,
2013-01-30 04:48:00,46.6,38.1,-100.00,NW,312,11.0,18.0,72,0.00,,,0.00,meteohub,2013-01-30 10:48:00,
2013-01-30 04:49:00,46.6,38.1,-100.00,WNW,298,6.0,18.0,72,0.00,,,0.00,meteohub,2013-01-30 10:49:00,
2013-01-30 04:52:00,46.4,38.3,-100.00,NW,311,13.0,18.0,73,0.00,,,0.00,meteohub,2013-01-30 10:52:00,
2013-01-30 04:53:00,46.4,38.3,-100.00,NW,304,13.0,17.0,73,0.00,,,0.00,meteohub,2013-01-30 10:53:00,
2013-01-30 04:55:00,46.4,38.3,-100.00,WNW,300,5.0,17.0,73,0.00,,,0.00,meteohub,2013-01-30 10:55:00,
2013-01-30 04:57:00,46.4,38.5,-100.00,NW,307,8.0,17.0,74,0.00,,,0.00,meteohub,2013-01-30 10:57:00,
2013-01-30 04:59:00,46.2,38.5,-100.00,NW,306,7.0,17.0,74,0.00,,,0.00,meteohub,2013-01-30 10:59:00,
2013-01-30 05:00:00,46.2,38.5,-100.00,WNW,302,11.0,17.0,74,0.00,,,0.00,meteohub,2013-01-30 11:00:00,
2013-01-30 05:02:00,46.2,38.5,-100.00,NW,313,5.0,17.0,74,0.00,,,0.00,meteohub,2013-01-30 11:02:00,
2013-01-30 05:04:00,46.2,38.5,-100.00,WNW,301,9.0,16.0,74,0.00,,,0.00,meteohub,2013-01-30 11:04:00,
2013-01-30 05:05:00,46.2,38.5,-100.00,NW,309,16.0,16.0,74,0.00,,,0.00,meteohub,2013-01-30 11:05:00,
2013-01-30 05:08:00,46.2,38.5,-100.00,NW,314,7.0,16.0,74,0.00,,,0.00,meteohub,2013-01-30 11:08:00,
2013-01-30 05:09:00,46.2,38.5,-100.00,NW,312,7.0,16.0,74,0.00,,,0.00,meteohub,2013-01-30 11:09:00,
2013-01-30 05:10:00,46.2,38.5,-100.00,NW,319,10.0,16.0,74,0.00,,,0.00,meteohub,2013-01-30 11:10:00,
2013-01-30 05:13:00,46.2,38.5,-100.00,NW,319,15.0,20.0,74,0.00,,,0.00,meteohub,2013-01-30 11:13:00,
2013-01-30 05:14:00,46.2,38.5,-100.00,NNW,327,16.0,20.0,74,0.00,,,0.00,meteohub,2013-01-30 11:14:00,
2013-01-30 05:15:00,46.2,38.5,-100.00,NNW,329,16.0,20.0,74,0.00,,,0.00,meteohub,2013-01-30 11:15:00,
2013-01-30 05:19:00,46.2,38.5,-100.00,NW,304,10.0,20.0,74,0.00,,,0.00,meteohub,2013-01-30 11:19:00,
2013-01-30 05:20:00,46.2,38.5,-100.00,NW,314,10.0,20.0,74,0.00,,,0.00,meteohub,2013-01-30 11:20:00,
2013-01-30 05:24:00,46.2,38.5,-100.00,NW,325,12.0,20.0,74,0.00,,,0.00,meteohub,2013-01-30 11:24:00,
2013-01-30 05:25:00,46.2,38.5,-100.00,WNW,303,12.0,20.0,74,0.00,,,0.00,meteohub,2013-01-30 11:25:00,
2013-01-30 05:26:00,46.2,38.5,-100.00,NW,309,10.0,20.0,74,0.00,,,0.00,meteohub,2013-01-30 11:26:00,
2013-01-30 05:29:00,46.2,37.4,-100.00,WNW,297,15.0,20.0,71,0.00,,,0.00,meteohub,2013-01-30 11:29:00,
2013-01-30 05:30:00,46.2,37.8,-100.00,NNW,328,14.0,20.0,72,0.00,,,0.00,meteohub,2013-01-30 11:30:00,
2013-01-30 05:31:00,46.2,37.4,-100.00,WNW,290,15.0,20.0,71,0.00,,,0.00,meteohub,2013-01-30 11:31:00,
2013-01-30 05:34:00,46.0,36.9,-100.00,NW,326,13.0,23.0,70,0.00,,,0.00,meteohub,2013-01-30 11:34:00,
2013-01-30 05:35:00,46.0,36.9,-100.00,NNW,327,18.0,23.0,70,0.00,,,0.00,meteohub,2013-01-30 11:35:00,
2013-01-30 05:36:00,46.0,36.5,-100.00,NNW,327,18.0,23.0,69,0.00,,,0.00,meteohub,2013-01-30 11:36:00,
2013-01-30 05:39:00,46.0,35.8,-100.00,NNW,333,14.0,23.0,67,0.00,,,0.00,meteohub,2013-01-30 11:39:00,
2013-01-30 05:40:00,46.0,35.8,-100.00,NNW,343,15.0,23.0,67,0.00,,,0.00,meteohub,2013-01-30 11:40:00,
2013-01-30 05:41:00,45.9,35.6,-100.00,NNW,337,12.0,23.0,67,0.00,,,0.00,meteohub,2013-01-30 11:41:00,
2013-01-30 05:44:00,45.9,35.1,-100.00,NNW,329,9.0,24.0,66,0.00,,,0.00,meteohub,2013-01-30 11:44:00,
2013-01-30 05:45:00,45.9,35.6,-100.00,NNW,331,13.0,24.0,67,0.00,,,0.00,meteohub,2013-01-30 11:45:00,
2013-01-30 05:46:00,45.7,35.4,-100.00,NW,321,11.0,24.0,67,0.00,,,0.00,meteohub,2013-01-30 11:46:00,
2013-01-30 05:49:00,45.7,34.5,-100.00,NNW,331,12.0,24.0,65,0.00,,,0.00,meteohub,2013-01-30 11:49:00,
2013-01-30 05:50:00,45.7,34.5,-100.00,NNW,336,15.0,24.0,65,0.00,,,0.00,meteohub,2013-01-30 11:50:00,
2013-01-30 05:51:00,45.5,34.3,-100.00,NW,321,17.0,24.0,65,0.00,,,0.00,meteohub,2013-01-30 11:51:00,
2013-01-30 05:54:00,45.5,34.3,-100.00,NNW,331,10.0,24.0,65,0.00,,,0.00,meteohub,2013-01-30 11:54:00,
2013-01-30 05:55:00,45.5,34.3,-100.00,NNW,331,12.0,24.0,65,0.00,,,0.00,meteohub,2013-01-30 11:55:00,
2013-01-30 05:56:00,45.5,34.3,-100.00,NNW,337,12.0,24.0,65,0.00,,,0.00,meteohub,2013-01-30 11:56:00,
2013-01-30 06:00:00,45.3,34.3,-100.00,NW,323,9.0,24.0,65,0.00,,,0.00,meteohub,2013-01-30 12:00:00,
2013-01-30 06:01:00,45.3,34.3,-100.00,NW,325,13.0,24.0,65,0.00,,,0.00,meteohub,2013-01-30 12:01:00,
2013-01-30 06:02:00,45.3,34.7,-100.00,NW,323,11.0,24.0,66,0.00,,,0.00,meteohub,2013-01-30 12:02:00,
2013-01-30 06:05:00,45.1,34.5,-100.00,NW,325,10.0,24.0,66,0.00,,,0.00,meteohub,2013-01-30 12:05:00,
2013-01-30 06:06:00,45.1,34.2,-100.00,NW,304,20.0,24.0,65,0.00,,,0.00,meteohub,2013-01-30 12:06:00,
2013-01-30 06:07:00,45.1,34.5,-100.00,NW,323,5.0,24.0,66,0.00,,,0.00,meteohub,2013-01-30 12:07:00,
2013-01-30 06:10:00,45.3,34.7,-100.00,WNW,300,14.0,24.0,66,0.00,,,0.00,meteohub,2013-01-30 12:10:00,
2013-01-30 06:11:00,45.3,34.7,-100.00,NW,323,16.0,24.0,66,0.00,,,0.00,meteohub,2013-01-30 12:11:00,
2013-01-30 06:13:00,45.1,33.3,-100.00,WNW,299,19.0,25.0,63,0.00,,,0.00,meteohub,2013-01-30 12:13:00,
2013-01-30 06:16:00,45.1,33.3,-100.00,NW,319,18.0,25.0,63,0.00,,,0.00,meteohub,2013-01-30 12:16:00,
2013-01-30 06:18:00,45.1,33.3,-100.00,WNW,300,11.0,25.0,63,0.00,,,0.00,meteohub,2013-01-30 12:18:00,
2013-01-30 06:21:00,44.8,32.5,-100.00,WNW,297,23.0,25.0,62,0.00,,,0.00,meteohub,2013-01-30 12:21:00,
2013-01-30 06:22:00,44.6,32.4,-100.00,NW,320,16.0,25.0,62,0.00,,,0.00,meteohub,2013-01-30 12:22:00,
2013-01-30 06:23:00,44.6,32.4,-100.00,NW,319,12.0,25.0,62,0.00,,,0.00,meteohub,2013-01-30 12:23:00,
2013-01-30 06:26:00,44.4,32.5,-100.00,NW,319,15.0,25.0,63,0.00,,,0.00,meteohub,2013-01-30 12:26:00,
2013-01-30 06:27:00,44.2,32.0,-100.00,WNW,292,23.0,25.0,62,0.00,,,0.00,meteohub,2013-01-30 12:27:00,
2013-01-30 06:29:00,44.2,32.4,-100.00,NW,312,19.0,25.0,63,0.00,,,0.00,meteohub,2013-01-30 12:29:00,
2013-01-30 06:31:00,44.2,32.4,-100.00,NW,311,15.0,26.0,63,0.00,,,0.00,meteohub,2013-01-30 12:31:00,
2013-01-30 06:32:00,44.2,32.9,-100.00,NW,326,14.0,26.0,64,0.00,,,0.00,meteohub,2013-01-30 12:32:00,
2013-01-30 06:34:00,44.2,32.9,-100.00,NW,322,20.0,26.0,64,0.00,,,0.00,meteohub,2013-01-30 12:34:00,
2013-01-30 06:37:00,44.2,32.4,-100.00,NW,317,17.0,26.0,63,0.00,,,0.00,meteohub,2013-01-30 12:37:00,
2013-01-30 06:38:00,44.2,32.4,-100.00,NW,312,11.0,26.0,63,0.00,,,0.00,meteohub,2013-01-30 12:38:00,
2013-01-30 06:40:00,44.2,32.4,-100.00,NW,321,10.0,26.0,63,0.00,,,0.00,meteohub,2013-01-30 12:40:00,
2013-01-30 06:42:00,44.1,32.4,-100.00,NNW,330,13.0,27.0,63,0.00,,,0.00,meteohub,2013-01-30 12:42:00,
2013-01-30 06:43:00,44.1,32.4,-100.00,NW,314,6.0,27.0,63,0.00,,,0.00,meteohub,2013-01-30 12:43:00,
2013-01-30 06:45:00,44.1,32.4,-100.00,NW,320,24.0,27.0,63,0.00,,,0.00,meteohub,2013-01-30 12:45:00,
2013-01-30 06:47:00,44.1,31.8,-100.00,NW,325,22.0,27.0,62,0.00,,,0.00,meteohub,2013-01-30 12:47:00,
2013-01-30 06:48:00,44.1,31.8,-100.00,NNW,332,11.0,27.0,62,0.00,,,0.00,meteohub,2013-01-30 12:48:00,
2013-01-30 06:50:00,44.1,32.4,-100.00,NNW,329,12.0,27.0,63,0.00,,,0.00,meteohub,2013-01-30 12:50:00,
2013-01-30 06:52:00,44.1,32.4,-100.00,NNW,333,15.0,27.0,63,0.00,,,0.00,meteohub,2013-01-30 12:52:00,
2013-01-30 06:53:00,44.1,32.4,-100.00,NNW,343,11.0,27.0,63,0.00,,,0.00,meteohub,2013-01-30 12:53:00,
2013-01-30 06:54:00,44.1,32.7,-100.00,NW,312,14.0,27.0,64,0.00,,,0.00,meteohub,2013-01-30 12:54:00,
2013-01-30 06:55:00,44.2,32.9,-100.00,NW,323,11.0,27.0,64,0.00,,,0.00,meteohub,2013-01-30 12:55:00,
2013-01-30 06:57:00,44.2,32.9,-100.00,NW,317,10.0,24.0,64,0.00,,,0.00,meteohub,2013-01-30 12:57:00,
2013-01-30 06:58:00,44.2,32.9,-100.00,NW,309,13.0,24.0,64,0.00,,,0.00,meteohub,2013-01-30 12:58:00,
2013-01-30 06:59:00,44.2,32.4,-100.00,WNW,301,12.0,24.0,63,0.00,,,0.00,meteohub,2013-01-30 12:59:00,
2013-01-30 07:00:00,44.1,32.4,-100.00,NW,319,9.0,24.0,63,0.00,,,0.00,meteohub,2013-01-30 13:00:00,
2013-01-30 07:02:00,44.1,32.7,-100.00,NW,321,8.0,24.0,64,0.00,,,0.00,meteohub,2013-01-30 13:02:00,
2013-01-30 07:04:00,44.2,32.9,-100.00,NW,307,7.0,24.0,64,0.00,,,0.00,meteohub,2013-01-30 13:04:00,
2013-01-30 07:05:00,44.2,32.9,-100.00,NW,311,10.0,24.0,64,0.00,,,0.00,meteohub,2013-01-30 13:05:00,
2013-01-30 07:07:00,44.1,32.7,-100.00,NW,323,11.0,20.0,64,0.00,,,0.00,meteohub,2013-01-30 13:07:00,
2013-01-30 07:09:00,44.1,32.7,-100.00,NW,311,14.0,20.0,64,0.00,,,0.00,meteohub,2013-01-30 13:09:00,
2013-01-30 07:10:00,44.1,32.7,-100.00,NW,321,16.0,20.0,64,0.00,,,0.00,meteohub,2013-01-30 13:10:00,
2013-01-30 07:12:00,44.1,32.7,-100.00,NW,321,11.0,20.0,64,0.00,,,0.00,meteohub,2013-01-30 13:12:00,
2013-01-30 07:14:00,44.1,32.7,-100.00,WNW,294,16.0,20.0,64,0.00,,,0.00,meteohub,2013-01-30 13:14:00,
2013-01-30 07:15:00,43.9,32.5,-100.00,WNW,302,20.0,20.0,64,0.00,,,0.00,meteohub,2013-01-30 13:15:00,
2013-01-30 07:17:00,43.9,32.9,-100.00,NW,319,15.0,21.0,65,0.00,,,0.00,meteohub,2013-01-30 13:17:00,
2013-01-30 07:19:00,43.9,32.5,-100.00,NW,319,16.0,21.0,64,0.00,,,0.00,meteohub,2013-01-30 13:19:00,
2013-01-30 07:20:00,43.9,32.5,-100.00,NNW,331,11.0,21.0,64,0.00,,,0.00,meteohub,2013-01-30 13:20:00,
2013-01-30 07:21:00,43.9,32.9,-100.00,NW,326,14.0,21.0,65,0.00,,,0.00,meteohub,2013-01-30 13:21:00,
2013-01-30 07:22:00,43.9,32.9,-100.00,NNW,333,11.0,21.0,65,0.00,,,0.00,meteohub,2013-01-30 13:22:00,
2013-01-30 07:25:00,43.9,32.9,-100.00,NNW,327,19.0,21.0,65,0.00,,,0.00,meteohub,2013-01-30 13:25:00,
2013-01-30 07:26:00,43.9,32.9,-100.00,NW,324,9.0,23.0,65,0.00,,,0.00,meteohub,2013-01-30 13:26:00,
2013-01-30 07:27:00,43.9,32.9,-100.00,NW,324,20.0,23.0,65,0.00,,,0.00,meteohub,2013-01-30 13:27:00,
2013-01-30 07:30:00,43.9,32.5,-100.00,NW,321,19.0,23.0,64,0.00,,,0.00,meteohub,2013-01-30 13:30:00,
2013-01-30 07:32:00,43.9,32.5,-100.00,NNW,328,16.0,23.0,64,0.00,,,0.00,meteohub,2013-01-30 13:32:00,
2013-01-30 07:35:00,43.9,32.9,-100.00,WNW,300,8.0,23.0,65,0.00,,,0.00,meteohub,2013-01-30 13:35:00,
2013-01-30 07:36:00,43.9,32.9,-100.00,WNW,303,13.0,23.0,65,0.00,,,0.00,meteohub,2013-01-30 13:36:00,
2013-01-30 07:37:00,43.9,32.5,-100.00,NNW,331,10.0,23.0,64,0.00,,,0.00,meteohub,2013-01-30 13:37:00,
2013-01-30 07:41:00,43.9,32.9,-100.00,NW,318,10.0,23.0,65,0.00,,,0.00,meteohub,2013-01-30 13:41:00,
2013-01-30 07:43:00,43.9,32.5,-100.00,WNW,296,6.0,23.0,64,0.00,,,0.00,meteohub,2013-01-30 13:43:00,
2013-01-30 07:46:00,43.9,32.5,-100.00,WNW,300,15.0,22.0,64,0.00,,,0.00,meteohub,2013-01-30 13:46:00,
2013-01-30 07:48:00,43.9,32.2,-100.00,NNW,328,10.0,22.0,63,0.00,,,0.00,meteohub,2013-01-30 13:48:00,
2013-01-30 07:51:00,43.9,32.2,-100.00,NW,321,10.0,22.0,63,0.00,,,0.00,meteohub,2013-01-30 13:51:00,
2013-01-30 07:52:00,43.9,31.6,-100.00,NW,304,9.0,22.0,62,0.00,,,0.00,meteohub,2013-01-30 13:52:00,
2013-01-30 07:53:00,43.9,31.6,-100.00,NNW,328,17.0,22.0,62,0.00,,,0.00,meteohub,2013-01-30 13:53:00,
2013-01-30 07:56:00,43.9,31.6,-100.00,NW,305,16.0,22.0,62,0.00,,,0.00,meteohub,2013-01-30 13:56:00,
2013-01-30 07:57:00,43.5,31.3,-100.00,NW,317,17.0,22.0,62,0.00,,,0.00,meteohub,2013-01-30 13:57:00,
2013-01-30 07:58:00,43.5,30.6,-100.00,NW,317,12.0,22.0,60,0.00,,,0.00,meteohub,2013-01-30 13:58:00,
2013-01-30 07:59:00,43.5,30.6,-100.00,NNW,336,18.0,22.0,60,0.00,,,0.00,meteohub,2013-01-30 13:59:00,
2013-01-30 08:02:00,43.5,30.2,-100.00,WNW,301,17.0,23.0,59,0.00,,,0.00,meteohub,2013-01-30 14:02:00,
2013-01-30 08:03:00,43.5,30.2,-100.00,NW,304,15.0,23.0,59,0.00,,,0.00,meteohub,2013-01-30 14:03:00,
2013-01-30 08:04:00,43.5,29.7,-100.00,NW,319,15.0,23.0,58,0.00,,,0.00,meteohub,2013-01-30 14:04:00,
2013-01-30 08:07:00,43.5,29.3,-100.00,NNW,343,14.0,26.0,57,0.00,,,0.00,meteohub,2013-01-30 14:07:00,
2013-01-30 08:08:00,43.5,29.7,-100.00,NNW,331,23.0,26.0,58,0.00,,,0.00,meteohub,2013-01-30 14:08:00,
2013-01-30 08:09:00,43.5,29.7,-100.00,NW,319,9.0,26.0,58,0.00,,,0.00,meteohub,2013-01-30 14:09:00,
2013-01-30 08:10:00,43.5,29.7,-100.00,NNW,348,22.0,26.0,58,0.00,,,0.00,meteohub,2013-01-30 14:10:00,
2013-01-30 08:12:00,43.5,29.7,-100.00,NW,304,13.0,26.0,58,0.00,,,0.00,meteohub,2013-01-30 14:12:00,
2013-01-30 08:13:00,43.5,29.7,-100.00,NW,323,12.0,26.0,58,0.00,,,0.00,meteohub,2013-01-30 14:13:00,
2013-01-30 08:14:00,43.5,29.7,-100.00,NW,325,15.0,26.0,58,0.00,,,0.00,meteohub,2013-01-30 14:14:00,
2013-01-30 08:15:00,43.5,29.7,-100.00,NNW,332,21.0,26.0,58,0.00,,,0.00,meteohub,2013-01-30 14:15:00,
2013-01-30 08:18:00,43.5,29.7,-100.00,NW,305,11.0,27.0,58,0.00,,,0.00,meteohub,2013-01-30 14:18:00,
2013-01-30 08:19:00,43.5,29.7,-100.00,NW,317,10.0,27.0,58,0.00,,,0.00,meteohub,2013-01-30 14:19:00,
2013-01-30 08:20:00,43.5,29.3,-100.00,NW,316,19.0,27.0,57,0.00,,,0.00,meteohub,2013-01-30 14:20:00,
2013-01-30 08:23:00,43.5,29.7,-100.00,NW,321,13.0,27.0,58,0.00,,,0.00,meteohub,2013-01-30 14:23:00,
2013-01-30 08:24:00,43.5,29.7,-100.00,NW,307,12.0,27.0,58,0.00,,,0.00,meteohub,2013-01-30 14:24:00,
2013-01-30 08:25:00,43.5,29.3,-100.00,NNW,330,5.0,27.0,57,0.00,,,0.00,meteohub,2013-01-30 14:25:00,
2013-01-30 08:28:00,43.5,30.2,-100.00,WNW,295,12.0,27.0,59,0.00,,,0.00,meteohub,2013-01-30 14:28:00,
2013-01-30 08:29:00,43.5,30.2,-100.00,NW,306,15.0,27.0,59,0.00,,,0.00,meteohub,2013-01-30 14:29:00,
2013-01-30 08:31:00,43.5,29.7,-100.00,NW,325,13.0,25.0,58,0.00,,,0.00,meteohub,2013-01-30 14:31:00,
2013-01-30 08:33:00,43.5,29.3,-100.00,NW,304,14.0,25.0,57,0.00,,,0.00,meteohub,2013-01-30 14:33:00,
2013-01-30 08:34:00,43.5,29.3,-100.00,NW,325,13.0,25.0,57,0.00,,,0.00,meteohub,2013-01-30 14:34:00,
2013-01-30 08:35:00,43.5,28.9,-100.00,NW,309,12.0,25.0,56,0.00,,,0.00,meteohub,2013-01-30 14:35:00,
2013-01-30 08:37:00,43.5,29.3,-100.00,WNW,293,15.0,28.0,57,0.00,,,0.00,meteohub,2013-01-30 14:37:00,
2013-01-30 08:38:00,43.5,29.3,-100.00,NW,311,8.0,28.0,57,0.00,,,0.00,meteohub,2013-01-30 14:38:00,
2013-01-30 08:39:00,43.5,29.7,-100.00,NW,309,11.0,28.0,58,0.00,,,0.00,meteohub,2013-01-30 14:39:00,
2013-01-30 08:40:00,43.5,29.7,-100.00,NW,317,14.0,28.0,58,0.00,,,0.00,meteohub,2013-01-30 14:40:00,
2013-01-30 08:42:00,43.5,30.2,-100.00,NW,310,16.0,28.0,59,0.00,,,0.00,meteohub,2013-01-30 14:42:00,
2013-01-30 08:43:00,43.5,30.2,-100.00,NNW,330,11.0,28.0,59,0.00,,,0.00,meteohub,2013-01-30 14:43:00,
2013-01-30 08:45:00,43.5,30.2,-100.00,WNW,295,12.0,28.0,59,0.00,,,0.00,meteohub,2013-01-30 14:45:00,
2013-01-30 08:47:00,43.5,30.6,-100.00,NW,311,11.0,28.0,60,0.00,,,0.00,meteohub,2013-01-30 14:47:00,
2013-01-30 08:49:00,43.3,30.0,-100.00,NW,308,22.0,28.0,59,0.00,,,0.00,meteohub,2013-01-30 14:49:00,
2013-01-30 08:50:00,43.3,30.0,-100.00,NW,305,15.0,28.0,59,0.00,,,0.00,meteohub,2013-01-30 14:50:00,
2013-01-30 08:52:00,43.3,30.0,-100.00,WNW,302,14.0,25.0,59,0.00,,,0.00,meteohub,2013-01-30 14:52:00,
2013-01-30 08:54:00,43.3,30.0,-100.00,NW,315,9.0,25.0,59,0.00,,,0.00,meteohub,2013-01-30 14:54:00,
2013-01-30 08:55:00,43.3,30.0,-100.00,NW,317,14.0,25.0,59,0.00,,,0.00,meteohub,2013-01-30 14:55:00,
2013-01-30 08:56:00,43.3,30.0,-100.00,WNW,301,20.0,24.0,59,0.00,,,0.00,meteohub,2013-01-30 14:56:00,
2013-01-30 08:57:00,43.3,29.5,-100.00,NW,315,14.0,24.0,58,0.00,,,0.00,meteohub,2013-01-30 14:57:00,
2013-01-30 08:59:00,43.3,30.0,-100.00,WNW,290,18.0,24.0,59,0.00,,,0.00,meteohub,2013-01-30 14:59:00,
2013-01-30 09:00:00,43.3,30.0,-100.00,NNW,329,13.0,24.0,59,0.00,,,0.00,meteohub,2013-01-30 15:00:00,
2013-01-30 09:01:00,43.3,30.4,-100.00,WNW,301,12.0,28.0,60,0.00,,,0.00,meteohub,2013-01-30 15:01:00,
2013-01-30 09:02:00,43.3,30.0,-100.00,NW,315,18.0,28.0,59,0.00,,,0.00,meteohub,2013-01-30 15:02:00,
2013-01-30 09:04:00,43.2,28.9,-100.00,NNW,333,23.0,28.0,57,0.00,,,0.00,meteohub,2013-01-30 15:04:00,
2013-01-30 09:06:00,43.2,29.3,-100.00,NW,314,21.0,29.0,58,0.00,,,0.00,meteohub,2013-01-30 15:06:00,
2013-01-30 09:07:00,43.2,29.8,-100.00,NW,313,12.0,29.0,59,0.00,,,0.00,meteohub,2013-01-30 15:07:00,
2013-01-30 09:09:00,43.2,29.3,-100.00,NW,315,13.0,29.0,58,0.00,,,0.00,meteohub,2013-01-30 15:09:00,
2013-01-30 09:12:00,43.2,29.8,-100.00,NW,313,14.0,29.0,59,0.00,,,0.00,meteohub,2013-01-30 15:12:00,
2013-01-30 09:13:00,43.2,29.3,-100.00,NW,320,18.0,29.0,58,0.00,,,0.00,meteohub,2013-01-30 15:13:00,
2013-01-30 09:15:00,43.2,29.8,-100.00,NNW,332,14.0,29.0,59,0.00,,,0.00,meteohub,2013-01-30 15:15:00,
2013-01-30 09:17:00,43.2,29.8,-100.00,NW,314,11.0,29.0,59,0.00,,,0.00,meteohub,2013-01-30 15:17:00,
2013-01-30 09:18:00,43.2,29.3,-100.00,WNW,302,15.0,29.0,58,0.00,,,0.00,meteohub,2013-01-30 15:18:00,
2013-01-30 09:21:00,43.2,29.3,-100.00,NW,317,18.0,28.0,58,0.00,,,0.00,meteohub,2013-01-30 15:21:00,
2013-01-30 09:22:00,43.2,29.3,-100.00,West,279,26.0,28.0,58,0.00,,,0.00,meteohub,2013-01-30 15:22:00,
2013-01-30 09:23:00,43.2,29.3,-100.00,NW,306,21.0,28.0,58,0.00,,,0.00,meteohub,2013-01-30 15:23:00,
2013-01-30 09:26:00,43.2,29.3,-100.00,WNW,293,20.0,28.0,58,0.00,,,0.00,meteohub,2013-01-30 15:26:00,
2013-01-30 09:27:00,43.2,29.3,-100.00,NW,310,21.0,28.0,58,0.00,,,0.00,meteohub,2013-01-30 15:27:00,
2013-01-30 09:28:00,43.2,28.9,-100.00,NNW,327,16.0,28.0,57,0.00,,,0.00,meteohub,2013-01-30 15:28:00,
2013-01-30 09:31:00,43.2,28.9,-100.00,NW,317,15.0,30.0,57,0.00,,,0.00,meteohub,2013-01-30 15:31:00,
2013-01-30 09:32:00,43.2,28.9,-100.00,NNW,333,15.0,30.0,57,0.00,,,0.00,meteohub,2013-01-30 15:32:00,
2013-01-30 09:33:00,43.2,28.9,-100.00,NNW,329,17.0,30.0,57,0.00,,,0.00,meteohub,2013-01-30 15:33:00,
2013-01-30 09:34:00,43.2,29.3,-100.00,WNW,294,16.0,30.0,58,0.00,,,0.00,meteohub,2013-01-30 15:34:00,
2013-01-30 09:37:00,43.2,29.3,-100.00,NW,315,16.0,30.0,58,0.00,,,0.00,meteohub,2013-01-30 15:37:00,
2013-01-30 09:39:00,43.2,28.9,-100.00,NW,306,13.0,30.0,57,0.00,,,0.00,meteohub,2013-01-30 15:39:00,
2013-01-30 09:42:00,43.2,28.9,-100.00,NNW,348,24.0,30.0,57,0.00,,,0.00,meteohub,2013-01-30 15:42:00,
2013-01-30 09:44:00,43.2,29.3,-100.00,NW,323,17.0,30.0,58,0.00,,,0.00,meteohub,2013-01-30 15:44:00,
2013-01-30 09:47:00,43.2,28.9,-100.00,NNW,333,23.0,27.0,57,0.00,,,0.00,meteohub,2013-01-30 15:47:00,
2013-01-30 09:48:00,43.2,28.9,-100.00,NW,325,26.0,27.0,57,0.00,,,0.00,meteohub,2013-01-30 15:48:00,
2013-01-30 09:49:00,43.2,28.6,-100.00,NNW,338,20.0,27.0,56,0.00,,,0.00,meteohub,2013-01-30 15:49:00,
2013-01-30 09:52:00,43.2,28.6,-100.00,NW,315,26.0,32.0,56,0.00,,,0.00,meteohub,2013-01-30 15:52:00,
2013-01-30 09:54:00,43.2,28.6,-100.00,NNW,333,23.0,32.0,56,0.00,,,0.00,meteohub,2013-01-30 15:54:00,
2013-01-30 09:55:00,43.2,28.9,-100.00,North,5,17.0,32.0,57,0.00,,,0.00,meteohub,2013-01-30 15:55:00,
2013-01-30 09:57:00,43.2,28.6,-100.00,NW,317,21.0,33.0,56,0.00,,,0.00,meteohub,2013-01-30 15:57:00,
2013-01-30 09:59:00,43.2,28.0,-100.00,NW,315,29.0,33.0,55,0.00,,,0.00,meteohub,2013-01-30 15:59:00,
2013-01-30 10:00:00,43.3,28.2,-100.00,NNW,335,25.0,33.0,55,0.00,,,0.00,meteohub,2013-01-30 16:00:00,
2013-01-30 10:03:00,44.1,28.9,-100.00,NNW,331,20.0,33.0,55,0.00,,,0.00,meteohub,2013-01-30 16:03:00,
2013-01-30 10:04:00,44.1,28.0,-100.00,NNW,348,24.0,33.0,53,0.00,,,0.00,meteohub,2013-01-30 16:04:00,
2013-01-30 10:05:00,44.2,28.2,-100.00,NNW,332,17.0,33.0,53,0.00,,,0.00,meteohub,2013-01-30 16:05:00,
2013-01-30 10:08:00,45.1,28.9,-100.00,NNW,344,16.0,33.0,53,0.00,,,0.00,meteohub,2013-01-30 16:08:00,
2013-01-30 10:09:00,45.1,28.9,-100.00,NNW,330,12.0,33.0,53,0.00,,,0.00,meteohub,2013-01-30 16:09:00,
2013-01-30 10:10:00,45.3,29.1,-100.00,North,349,20.0,33.0,53,0.00,,,0.00,meteohub,2013-01-30 16:10:00,
2013-01-30 10:14:00,45.3,29.1,-100.00,WNW,296,18.0,31.0,53,0.00,,,0.00,meteohub,2013-01-30 16:14:00,
2013-01-30 10:16:00,45.1,28.9,-100.00,NNW,330,24.0,31.0,53,0.00,,,0.00,meteohub,2013-01-30 16:16:00,
2013-01-30 10:19:00,44.6,28.6,-100.00,North,350,15.0,31.0,53,0.00,,,0.00,meteohub,2013-01-30 16:19:00,
2013-01-30 10:21:00,44.4,28.8,-100.00,North,349,14.0,31.0,54,0.00,,,0.00,meteohub,2013-01-30 16:21:00,
2013-01-30 10:24:00,44.6,28.9,-100.00,NNW,334,19.0,27.0,54,0.00,,,0.00,meteohub,2013-01-30 16:24:00,
2013-01-30 10:25:00,44.6,28.9,-100.00,NW,321,13.0,27.0,54,0.00,,,0.00,meteohub,2013-01-30 16:25:00,
2013-01-30 10:26:00,44.8,29.1,-100.00,NW,317,15.0,29.0,54,0.00,,,0.00,meteohub,2013-01-30 16:26:00,
2013-01-30 10:29:00,44.8,29.1,-100.00,NNW,331,20.0,29.0,54,0.00,,,0.00,meteohub,2013-01-30 16:29:00,
2013-01-30 10:30:00,45.0,29.3,-100.00,NNW,331,13.0,29.0,54,0.00,,,0.00,meteohub,2013-01-30 16:30:00,
2013-01-30 10:31:00,44.8,28.2,-100.00,NW,321,17.0,32.0,52,0.00,,,0.00,meteohub,2013-01-30 16:31:00,
2013-01-30 10:34:00,45.0,29.8,-100.00,NNW,333,20.0,32.0,55,0.00,,,0.00,meteohub,2013-01-30 16:34:00,
2013-01-30 10:35:00,45.0,29.8,-100.00,NNW,334,19.0,32.0,55,0.00,,,0.00,meteohub,2013-01-30 16:35:00,
2013-01-30 10:36:00,45.0,28.9,-100.00,NNW,327,12.0,32.0,53,0.00,,,0.00,meteohub,2013-01-30 16:36:00,
2013-01-30 10:40:00,45.3,28.8,-100.00,NW,313,15.0,32.0,52,0.00,,,0.00,meteohub,2013-01-30 16:40:00,
2013-01-30 10:41:00,45.5,29.3,-100.00,NW,312,21.0,32.0,53,0.00,,,0.00,meteohub,2013-01-30 16:41:00,
2013-01-30 10:42:00,45.7,29.1,-100.00,NNW,335,12.0,32.0,52,0.00,,,0.00,meteohub,2013-01-30 16:42:00,
2013-01-30 10:45:00,45.5,28.9,-100.00,NW,323,24.0,32.0,52,0.00,,,0.00,meteohub,2013-01-30 16:45:00,
2013-01-30 10:46:00,45.3,28.8,-100.00,NW,324,16.0,26.0,52,0.00,,,0.00,meteohub,2013-01-30 16:46:00,
2013-01-30 10:47:00,45.1,28.6,-100.00,NNW,330,21.0,26.0,52,0.00,,,0.00,meteohub,2013-01-30 16:47:00,
2013-01-30 10:50:00,45.0,28.9,-100.00,NW,319,22.0,26.0,53,0.00,,,0.00,meteohub,2013-01-30 16:50:00,
2013-01-30 10:51:00,45.0,28.9,-100.00,NW,323,23.0,26.0,53,0.00,,,0.00,meteohub,2013-01-30 16:51:00,
2013-01-30 10:52:00,45.1,28.6,-100.00,NNW,333,14.0,29.0,52,0.00,,,0.00,meteohub,2013-01-30 16:52:00,
2013-01-30 10:55:00,45.1,28.6,-100.00,NNW,344,20.0,29.0,52,0.00,,,0.00,meteohub,2013-01-30 16:55:00,
2013-01-30 10:56:00,45.1,28.9,-100.00,NNW,331,18.0,31.0,53,0.00,,,0.00,meteohub,2013-01-30 16:56:00,
2013-01-30 10:57:00,45.3,29.1,-100.00,NW,325,21.0,31.0,53,0.00,,,0.00,meteohub,2013-01-30 16:57:00,
2013-01-30 11:00:00,45.5,29.3,-100.00,NW,323,18.0,31.0,53,0.00,,,0.00,meteohub,2013-01-30 17:00:00,
2013-01-30 11:01:00,45.5,29.3,-100.00,WNW,301,20.0,31.0,53,0.00,,,0.00,meteohub,2013-01-30 17:01:00,
2013-01-30 11:02:00,45.5,28.4,-100.00,NW,308,16.0,31.0,51,0.00,,,0.00,meteohub,2013-01-30 17:02:00,
2013-01-30 11:05:00,45.7,29.1,-100.00,NW,324,11.0,31.0,52,0.00,,,0.00,meteohub,2013-01-30 17:05:00,
2013-01-30 11:07:00,45.9,29.7,-100.00,North,355,22.0,29.0,53,0.00,,,0.00,meteohub,2013-01-30 17:07:00,
2013-01-30 11:08:00,45.9,29.7,-100.00,NNW,341,15.0,29.0,53,0.00,,,0.00,meteohub,2013-01-30 17:08:00,
2013-01-30 11:11:00,46.0,29.5,-100.00,NNW,337,18.0,30.0,52,0.00,,,0.00,meteohub,2013-01-30 17:11:00,
2013-01-30 11:12:00,46.0,29.8,-100.00,NW,322,15.0,30.0,53,0.00,,,0.00,meteohub,2013-01-30 17:12:00,
2013-01-30 11:13:00,46.0,29.8,-100.00,NW,324,17.0,30.0,53,0.00,,,0.00,meteohub,2013-01-30 17:13:00,
2013-01-30 11:17:00,45.7,29.1,-100.00,NNW,337,25.0,30.0,52,0.00,,,0.00,meteohub,2013-01-30 17:17:00,
2013-01-30 11:18:00,45.7,28.6,-100.00,NNW,331,14.0,30.0,51,0.00,,,0.00,meteohub,2013-01-30 17:18:00,
2013-01-30 11:19:00,45.7,28.6,-100.00,NW,313,18.0,30.0,51,0.00,,,0.00,meteohub,2013-01-30 17:19:00,
2013-01-30 11:22:00,45.5,29.3,-100.00,NW,321,9.0,27.0,53,0.00,,,0.00,meteohub,2013-01-30 17:22:00,
2013-01-30 11:23:00,45.5,29.3,-100.00,WNW,284,18.0,27.0,53,0.00,,,0.00,meteohub,2013-01-30 17:23:00,
2013-01-30 11:24:00,45.5,28.4,-100.00,NW,313,10.0,27.0,51,0.00,,,0.00,meteohub,2013-01-30 17:24:00,
2013-01-30 11:27:00,45.7,29.5,-100.00,NNW,344,22.0,29.0,53,0.00,,,0.00,meteohub,2013-01-30 17:27:00,
2013-01-30 11:28:00,45.9,29.7,-100.00,NNW,335,11.0,29.0,53,0.00,,,0.00,meteohub,2013-01-30 17:28:00,
2013-01-30 11:29:00,46.0,28.9,-100.00,NNW,329,24.0,29.0,51,0.00,,,0.00,meteohub,2013-01-30 17:29:00,
2013-01-30 11:30:00,46.0,27.9,-100.00,NW,321,11.0,29.0,49,0.00,,,0.00,meteohub,2013-01-30 17:30:00,
2013-01-30 11:32:00,46.0,28.9,-100.00,NNW,328,22.0,31.0,51,0.00,,,0.00,meteohub,2013-01-30 17:32:00,
2013-01-30 11:33:00,46.0,28.9,-100.00,NW,323,14.0,31.0,51,0.00,,,0.00,meteohub,2013-01-30 17:33:00,
2013-01-30 11:34:00,46.0,28.9,-100.00,NNW,348,18.0,31.0,51,0.00,,,0.00,meteohub,2013-01-30 17:34:00,
2013-01-30 11:36:00,46.0,28.4,-100.00,NW,313,17.0,31.0,50,0.00,,,0.00,meteohub,2013-01-30 17:36:00,
2013-01-30 11:38:00,45.9,28.2,-100.00,NW,323,14.0,31.0,50,0.00,,,0.00,meteohub,2013-01-30 17:38:00,
2013-01-30 11:39:00,45.9,28.8,-100.00,NNW,340,23.0,31.0,51,0.00,,,0.00,meteohub,2013-01-30 17:39:00,
2013-01-30 11:40:00,45.9,28.8,-100.00,NW,323,19.0,31.0,51,0.00,,,0.00,meteohub,2013-01-30 17:40:00,
2013-01-30 11:41:00,45.7,28.6,-100.00,NNW,331,16.0,31.0,51,0.00,,,0.00,meteohub,2013-01-30 17:41:00,
2013-01-30 11:43:00,45.7,29.1,-100.00,NW,321,14.0,31.0,52,0.00,,,0.00,meteohub,2013-01-30 17:43:00,
2013-01-30 11:45:00,45.9,29.3,-100.00,NNW,328,18.0,31.0,52,0.00,,,0.00,meteohub,2013-01-30 17:45:00,
2013-01-30 11:46:00,45.9,29.3,-100.00,NNW,327,11.0,29.0,52,0.00,,,0.00,meteohub,2013-01-30 17:46:00,
2013-01-30 11:47:00,46.0,29.5,-100.00,WNW,299,15.0,29.0,52,0.00,,,0.00,meteohub,2013-01-30 17:47:00,
2013-01-30 11:48:00,46.0,28.4,-100.00,NNW,340,16.0,29.0,50,0.00,,,0.00,meteohub,2013-01-30 17:48:00,
2013-01-30 11:50:00,46.2,29.1,-100.00,NNW,337,19.0,29.0,51,0.00,,,0.00,meteohub,2013-01-30 17:50:00,
2013-01-30 11:51:00,46.2,29.1,-100.00,NNW,333,23.0,29.0,51,0.00,,,0.00,meteohub,2013-01-30 17:51:00,
2013-01-30 11:52:00,46.2,28.0,-100.00,NNW,336,22.0,29.0,49,0.00,,,0.00,meteohub,2013-01-30 17:52:00,
2013-01-30 11:53:00,46.2,28.0,-100.00,NW,325,19.0,29.0,49,0.00,,,0.00,meteohub,2013-01-30 17:53:00,
2013-01-30 11:56:00,46.2,29.1,-100.00,NW,315,22.0,29.0,51,0.00,,,0.00,meteohub,2013-01-30 17:56:00,
2013-01-30 11:57:00,46.2,28.0,-100.00,NW,317,16.0,29.0,49,0.00,,,0.00,meteohub,2013-01-30 17:57:00,
2013-01-30 11:59:00,46.2,28.0,-100.00,NW,323,13.0,29.0,49,0.00,,,0.00,meteohub,2013-01-30 17:59:00,
2013-01-30 12:01:00,46.4,28.8,-100.00,NNW,330,17.0,29.0,50,0.00,,,0.00,meteohub,2013-01-30 18:01:00,
2013-01-30 12:02:00,46.4,28.2,-100.00,NNW,330,22.0,29.0,49,0.00,,,0.00,meteohub,2013-01-30 18:02:00,
2013-01-30 12:03:00,46.6,27.9,-100.00,NW,320,17.0,29.0,48,0.00,,,0.00,meteohub,2013-01-30 18:03:00,
2013-01-30 12:05:00,46.6,27.9,-100.00,NNW,336,18.0,29.0,48,0.00,,,0.00,meteohub,2013-01-30 18:05:00,
2013-01-30 12:06:00,46.4,27.9,-100.00,NNW,331,28.0,29.0,48,0.00,,,0.00,meteohub,2013-01-30 18:06:00,
2013-01-30 12:07:00,46.4,28.2,-100.00,NNW,335,18.0,29.0,49,0.00,,,0.00,meteohub,2013-01-30 18:07:00,
2013-01-30 12:08:00,46.4,28.2,-100.00,NNW,340,22.0,29.0,49,0.00,,,0.00,meteohub,2013-01-30 18:08:00,
2013-01-30 12:11:00,46.2,28.6,-100.00,North,355,12.0,29.0,50,0.00,,,0.00,meteohub,2013-01-30 18:11:00,
2013-01-30 12:12:00,46.4,28.8,-100.00,NNW,343,16.0,29.0,50,0.00,,,0.00,meteohub,2013-01-30 18:12:00,
2013-01-30 12:13:00,46.4,28.8,-100.00,NNW,340,15.0,29.0,50,0.00,,,0.00,meteohub,2013-01-30 18:13:00,
2013-01-30 12:16:00,46.4,28.2,-100.00,NW,317,16.0,29.0,49,0.00,,,0.00,meteohub,2013-01-30 18:16:00,
2013-01-30 12:17:00,46.6,28.4,-100.00,North,350,19.0,29.0,49,0.00,,,0.00,meteohub,2013-01-30 18:17:00,
2013-01-30 12:19:00,46.6,28.4,-100.00,NW,324,16.0,29.0,49,0.00,,,0.00,meteohub,2013-01-30 18:19:00,
2013-01-30 12:21:00,46.4,28.2,-100.00,NNW,336,18.0,29.0,49,0.00,,,0.00,meteohub,2013-01-30 18:21:00,
2013-01-30 12:22:00,46.4,28.2,-100.00,NNW,331,15.0,29.0,49,0.00,,,0.00,meteohub,2013-01-30 18:22:00,
2013-01-30 12:23:00,46.4,28.2,-100.00,NNW,327,10.0,29.0,49,0.00,,,0.00,meteohub,2013-01-30 18:23:00,
2013-01-30 12:25:00,46.6,28.4,-100.00,NW,323,11.0,29.0,49,0.00,,,0.00,meteohub,2013-01-30 18:25:00,
2013-01-30 12:26:00,46.8,29.1,-100.00,NW,306,14.0,28.0,50,0.00,,,0.00,meteohub,2013-01-30 18:26:00,
2013-01-30 12:27:00,46.8,29.1,-100.00,NNW,344,19.0,28.0,50,0.00,,,0.00,meteohub,2013-01-30 18:27:00,
2013-01-30 12:28:00,46.9,28.8,-100.00,NW,310,16.0,28.0,49,0.00,,,0.00,meteohub,2013-01-30 18:28:00,
2013-01-30 12:30:00,47.1,28.9,-100.00,NW,324,20.0,28.0,49,0.00,,,0.00,meteohub,2013-01-30 18:30:00,
2013-01-30 12:32:00,47.3,29.1,-100.00,NW,310,15.0,28.0,49,0.00,,,0.00,meteohub,2013-01-30 18:32:00,
2013-01-30 12:34:00,47.7,28.4,-100.00,NW,325,19.0,28.0,47,0.00,,,0.00,meteohub,2013-01-30 18:34:00,
2013-01-30 12:35:00,47.8,29.1,-100.00,NW,317,17.0,28.0,48,0.00,,,0.00,meteohub,2013-01-30 18:35:00,
2013-01-30 12:37:00,48.0,28.8,-100.00,NW,315,17.0,28.0,47,0.00,,,0.00,meteohub,2013-01-30 18:37:00,
2013-01-30 12:38:00,48.0,28.2,-100.00,NNW,329,16.0,28.0,46,0.00,,,0.00,meteohub,2013-01-30 18:38:00,
2013-01-30 12:39:00,48.2,28.4,-100.00,NW,313,13.0,28.0,46,0.00,,,0.00,meteohub,2013-01-30 18:39:00,
2013-01-30 12:41:00,48.0,27.1,-100.00,NNW,329,22.0,28.0,44,0.00,,,0.00,meteohub,2013-01-30 18:41:00,
2013-01-30 12:42:00,47.8,28.6,-100.00,NW,306,15.0,26.0,47,0.00,,,0.00,meteohub,2013-01-30 18:42:00,
2013-01-30 12:43:00,48.0,28.2,-100.00,NW,319,19.0,26.0,46,0.00,,,0.00,meteohub,2013-01-30 18:43:00,
2013-01-30 12:44:00,48.0,28.8,-100.00,NW,313,15.0,26.0,47,0.00,,,0.00,meteohub,2013-01-30 18:44:00,
2013-01-30 12:46:00,48.2,28.4,-100.00,NW,324,9.0,26.0,46,0.00,,,0.00,meteohub,2013-01-30 18:46:00,
2013-01-30 12:47:00,48.4,29.7,-100.00,NW,318,13.0,26.0,48,0.00,,,0.00,meteohub,2013-01-30 18:47:00,
2013-01-30 12:48:00,48.6,29.3,-100.00,NW,305,13.0,26.0,47,0.00,,,0.00,meteohub,2013-01-30 18:48:00,
2013-01-30 12:50:00,48.7,29.5,-100.00,NW,317,15.0,26.0,47,0.00,,,0.00,meteohub,2013-01-30 18:50:00,
2013-01-30 12:51:00,48.7,27.3,-100.00,NW,321,16.0,26.0,43,0.00,,,0.00,meteohub,2013-01-30 18:51:00,
2013-01-30 12:52:00,48.7,28.4,-100.00,NNW,330,18.0,26.0,45,0.00,,,0.00,meteohub,2013-01-30 18:52:00,
2013-01-30 12:54:00,48.9,28.6,-100.00,NW,309,16.0,26.0,45,0.00,,,0.00,meteohub,2013-01-30 18:54:00,
2013-01-30 12:55:00,48.9,27.3,-100.00,WNW,301,18.0,26.0,43,0.00,,,0.00,meteohub,2013-01-30 18:55:00,
2013-01-30 12:56:00,48.9,28.0,-100.00,NNW,329,10.0,25.0,44,0.00,,,0.00,meteohub,2013-01-30 18:56:00,
2013-01-30 12:57:00,48.9,28.6,-100.00,NW,312,10.0,25.0,45,0.00,,,0.00,meteohub,2013-01-30 18:57:00,
2013-01-30 13:00:00,48.9,27.3,-100.00,NW,316,15.0,25.0,43,0.00,,,0.00,meteohub,2013-01-30 19:00:00,
2013-01-30 13:02:00,49.3,29.3,-100.00,NW,323,23.0,25.0,46,0.00,,,0.00,meteohub,2013-01-30 19:02:00,
2013-01-30 13:03:00,49.5,28.9,-100.00,NNW,330,20.0,25.0,45,0.00,,,0.00,meteohub,2013-01-30 19:03:00,
2013-01-30 13:05:00,49.3,27.1,-100.00,NNW,337,22.0,25.0,42,0.00,,,0.00,meteohub,2013-01-30 19:05:00,
2013-01-30 13:07:00,49.5,28.9,-100.00,NNW,331,15.0,25.0,45,0.00,,,0.00,meteohub,2013-01-30 19:07:00,
2013-01-30 13:09:00,49.6,28.6,-100.00,NW,321,18.0,25.0,44,0.00,,,0.00,meteohub,2013-01-30 19:09:00,
2013-01-30 13:10:00,49.8,28.2,-100.00,NW,315,7.0,25.0,43,0.00,,,0.00,meteohub,2013-01-30 19:10:00,
2013-01-30 13:12:00,50.2,28.6,-100.00,NW,315,13.0,26.0,43,0.00,,,0.00,meteohub,2013-01-30 19:12:00,
2013-01-30 13:14:00,50.2,27.3,-100.00,NW,323,10.0,26.0,41,0.00,,,0.00,meteohub,2013-01-30 19:14:00,
2013-01-30 13:16:00,50.2,28.0,-100.00,NW,317,17.0,26.0,42,0.00,,,0.00,meteohub,2013-01-30 19:16:00,
2013-01-30 13:18:00,50.4,29.8,-100.00,WNW,292,17.0,26.0,45,0.00,,,0.00,meteohub,2013-01-30 19:18:00,
2013-01-30 13:19:00,50.7,30.2,-100.00,WNW,295,8.0,26.0,45,0.00,,,0.00,meteohub,2013-01-30 19:19:00,
2013-01-30 13:21:00,50.7,26.1,-100.00,WNW,291,22.0,26.0,38,0.00,,,0.00,meteohub,2013-01-30 19:21:00,
2013-01-30 13:23:00,50.7,26.1,-100.00,NW,317,19.0,24.0,38,0.00,,,0.00,meteohub,2013-01-30 19:23:00,
2013-01-30 13:25:00,50.7,28.4,-100.00,NW,317,9.0,24.0,42,0.00,,,0.00,meteohub,2013-01-30 19:25:00,
2013-01-30 13:26:00,51.1,28.2,-100.00,NW,325,12.0,27.0,41,0.00,,,0.00,meteohub,2013-01-30 19:26:00,
2013-01-30 13:27:00,51.3,27.7,-100.00,WNW,290,22.0,27.0,40,0.00,,,0.00,meteohub,2013-01-30 19:27:00,
2013-01-30 13:28:00,51.3,27.1,-100.00,WNW,292,14.0,27.0,39,0.00,,,0.00,meteohub,2013-01-30 19:28:00,
2013-01-30 13:30:00,51.1,27.7,-100.00,NW,304,16.0,27.0,40,0.00,,,0.00,meteohub,2013-01-30 19:30:00,
2013-01-30 13:31:00,51.1,27.7,-100.00,NW,323,13.0,28.0,40,0.00,,,0.00,meteohub,2013-01-30 19:31:00,
2013-01-30 13:32:00,51.1,28.2,-100.00,WNW,301,19.0,28.0,41,0.00,,,0.00,meteohub,2013-01-30 19:32:00,
2013-01-30 13:34:00,50.7,26.6,-100.00,NW,306,11.0,28.0,39,0.00,,,0.00,meteohub,2013-01-30 19:34:00,
2013-01-30 13:35:00,50.5,26.4,-100.00,NNW,333,20.0,28.0,39,0.00,,,0.00,meteohub,2013-01-30 19:35:00,
2013-01-30 13:36:00,50.4,26.4,-100.00,NW,307,15.0,28.0,39,0.00,,,0.00,meteohub,2013-01-30 19:36:00,
2013-01-30 13:37:00,50.4,25.7,-100.00,NW,307,16.0,28.0,38,0.00,,,0.00,meteohub,2013-01-30 19:37:00,
2013-01-30 13:39:00,50.4,25.0,-100.00,WNW,292,20.0,28.0,37,0.00,,,0.00,meteohub,2013-01-30 19:39:00,
2013-01-30 13:40:00,50.5,25.2,-100.00,WNW,286,21.0,28.0,37,0.00,,,0.00,meteohub,2013-01-30 19:40:00,
2013-01-30 13:42:00,50.5,25.2,-100.00,NNW,329,21.0,30.0,37,0.00,,,0.00,meteohub,2013-01-30 19:42:00,
2013-01-30 13:44:00,50.7,26.1,-100.00,NW,309,14.0,30.0,38,0.00,,,0.00,meteohub,2013-01-30 19:44:00,
2013-01-30 13:45:00,50.7,25.3,-100.00,NW,311,15.0,30.0,37,0.00,,,0.00,meteohub,2013-01-30 19:45:00,
2013-01-30 13:47:00,51.1,26.4,-100.00,WNW,298,11.0,30.0,38,0.00,,,0.00,meteohub,2013-01-30 19:47:00,
2013-01-30 13:49:00,51.1,26.4,-100.00,NNW,328,15.0,30.0,38,0.00,,,0.00,meteohub,2013-01-30 19:49:00,
2013-01-30 13:50:00,51.1,24.4,-100.00,NW,319,19.0,30.0,35,0.00,,,0.00,meteohub,2013-01-30 19:50:00,
2013-01-30 13:53:00,50.5,24.6,-100.00,NNW,327,19.0,30.0,36,0.00,,,0.00,meteohub,2013-01-30 19:53:00,
2013-01-30 13:54:00,50.4,24.4,-100.00,NW,324,10.0,30.0,36,0.00,,,0.00,meteohub,2013-01-30 19:54:00,
2013-01-30 13:55:00,50.2,25.5,-100.00,NNW,331,16.0,30.0,38,0.00,,,0.00,meteohub,2013-01-30 19:55:00,
2013-01-30 13:58:00,50.5,25.9,-100.00,NNW,335,15.0,27.0,38,0.00,,,0.00,meteohub,2013-01-30 19:58:00,
2013-01-30 14:00:00,51.1,25.7,-100.00,NW,325,15.0,27.0,37,0.00,,,0.00,meteohub,2013-01-30 20:00:00,
2013-01-30 14:01:00,51.1,25.7,-100.00,WNW,303,11.0,27.0,37,0.00,,,0.00,meteohub,2013-01-30 20:01:00,
2013-01-30 14:03:00,51.1,26.4,-100.00,WNW,288,24.0,27.0,38,0.00,,,0.00,meteohub,2013-01-30 20:03:00,
2013-01-30 14:06:00,51.3,25.2,-100.00,WNW,299,21.0,27.0,36,0.00,,,0.00,meteohub,2013-01-30 20:06:00,
2013-01-30 14:07:00,51.3,25.2,-100.00,WNW,293,22.0,27.0,36,0.00,,,0.00,meteohub,2013-01-30 20:07:00,
2013-01-30 14:08:00,51.1,24.4,-100.00,WNW,301,10.0,27.0,35,0.00,,,0.00,meteohub,2013-01-30 20:08:00,
2013-01-30 14:11:00,50.7,25.3,-100.00,NW,320,18.0,27.0,37,0.00,,,0.00,meteohub,2013-01-30 20:11:00,
2013-01-30 14:12:00,50.7,25.3,-100.00,NW,324,11.0,26.0,37,0.00,,,0.00,meteohub,2013-01-30 20:12:00,
2013-01-30 14:14:00,51.1,25.0,-100.00,NNW,334,13.0,26.0,36,0.00,,,0.00,meteohub,2013-01-30 20:14:00,
2013-01-30 14:16:00,51.3,25.2,-100.00,WNW,298,15.0,26.0,36,0.00,,,0.00,meteohub,2013-01-30 20:16:00,
2013-01-30 14:17:00,51.3,24.6,-100.00,NW,315,16.0,26.0,35,0.00,,,0.00,meteohub,2013-01-30 20:17:00,
2013-01-30 14:19:00,51.3,23.2,-100.00,NW,304,18.0,26.0,33,0.00,,,0.00,meteohub,2013-01-30 20:19:00,
2013-01-30 14:21:00,51.1,24.4,-100.00,NW,311,14.0,26.0,35,0.00,,,0.00,meteohub,2013-01-30 20:21:00,
2013-01-30 14:22:00,51.1,24.4,-100.00,NW,309,12.0,26.0,35,0.00,,,0.00,meteohub,2013-01-30 20:22:00,
2013-01-30 14:24:00,50.7,24.8,-100.00,NW,326,11.0,26.0,36,0.00,,,0.00,meteohub,2013-01-30 20:24:00,
2013-01-30 14:27:00,50.7,24.8,-100.00,NW,326,16.0,24.0,36,0.00,,,0.00,meteohub,2013-01-30 20:27:00,
2013-01-30 14:29:00,50.7,24.1,-100.00,NW,324,16.0,24.0,35,0.00,,,0.00,meteohub,2013-01-30 20:29:00,
2013-01-30 14:32:00,50.7,24.8,-100.00,NW,320,23.0,24.0,36,0.00,,,0.00,meteohub,2013-01-30 20:32:00,
2013-01-30 14:33:00,50.7,22.6,-100.00,NW,325,9.0,24.0,33,0.00,,,0.00,meteohub,2013-01-30 20:33:00,
2013-01-30 14:34:00,51.1,23.0,-100.00,NW,309,20.0,24.0,33,0.00,,,0.00,meteohub,2013-01-30 20:34:00,
2013-01-30 14:37:00,51.1,23.0,-100.00,NW,316,11.0,26.0,33,0.00,,,0.00,meteohub,2013-01-30 20:37:00,
2013-01-30 14:38:00,51.1,23.7,-100.00,NW,305,9.0,26.0,34,0.00,,,0.00,meteohub,2013-01-30 20:38:00,
2013-01-30 14:39:00,51.1,23.0,-100.00,NW,324,14.0,26.0,33,0.00,,,0.00,meteohub,2013-01-30 20:39:00,
2013-01-30 14:42:00,51.4,24.1,-100.00,NNW,335,14.0,26.0,34,0.00,,,0.00,meteohub,2013-01-30 20:42:00,
2013-01-30 14:44:00,51.4,22.6,-100.00,NNW,329,19.0,26.0,32,0.00,,,0.00,meteohub,2013-01-30 20:44:00,
2013-01-30 14:47:00,51.4,23.4,-100.00,NNW,329,14.0,26.0,33,0.00,,,0.00,meteohub,2013-01-30 20:47:00,
2013-01-30 14:49:00,51.6,23.4,-100.00,NW,323,16.0,26.0,33,0.00,,,0.00,meteohub,2013-01-30 20:49:00,
2013-01-30 14:50:00,51.6,22.6,-100.00,NW,325,13.0,26.0,32,0.00,,,0.00,meteohub,2013-01-30 20:50:00,
2013-01-30 14:52:00,51.6,24.8,-100.00,NW,323,15.0,25.0,35,0.00,,,0.00,meteohub,2013-01-30 20:52:00,
2013-01-30 14:53:00,51.6,22.6,-100.00,NW,325,14.0,25.0,32,0.00,,,0.00,meteohub,2013-01-30 20:53:00,
2013-01-30 14:54:00,51.6,21.2,-100.00,NW,306,18.0,25.0,30,0.00,,,0.00,meteohub,2013-01-30 20:54:00,
2013-01-30 14:55:00,51.6,21.9,-100.00,NW,321,13.0,25.0,31,0.00,,,0.00,meteohub,2013-01-30 20:55:00,
2013-01-30 14:57:00,51.3,23.9,-100.00,NW,310,18.0,26.0,34,0.00,,,0.00,meteohub,2013-01-30 20:57:00,
2013-01-30 14:58:00,51.3,23.2,-100.00,NW,315,18.0,26.0,33,0.00,,,0.00,meteohub,2013-01-30 20:58:00,
2013-01-30 14:59:00,51.3,23.9,-100.00,NW,316,15.0,26.0,34,0.00,,,0.00,meteohub,2013-01-30 20:59:00,
2013-01-30 15:00:00,51.3,23.2,-100.00,NW,317,11.0,26.0,33,0.00,,,0.00,meteohub,2013-01-30 21:00:00,
2013-01-30 15:03:00,51.4,24.1,-100.00,NNW,338,11.0,26.0,34,0.00,,,0.00,meteohub,2013-01-30 21:03:00,
2013-01-30 15:04:00,51.4,25.3,-100.00,NW,310,11.0,26.0,36,0.00,,,0.00,meteohub,2013-01-30 21:04:00,
2013-01-30 15:05:00,51.6,24.8,-100.00,WNW,285,20.0,26.0,35,0.00,,,0.00,meteohub,2013-01-30 21:05:00,
2013-01-30 15:06:00,51.6,21.9,-100.00,WNW,300,15.0,26.0,31,0.00,,,0.00,meteohub,2013-01-30 21:06:00,
2013-01-30 15:09:00,51.6,22.6,-100.00,NNW,335,17.0,26.0,32,0.00,,,0.00,meteohub,2013-01-30 21:09:00,
2013-01-30 15:10:00,51.6,22.6,-100.00,NW,319,9.0,26.0,32,0.00,,,0.00,meteohub,2013-01-30 21:10:00,
2013-01-30 15:11:00,51.6,23.4,-100.00,NNW,336,14.0,26.0,33,0.00,,,0.00,meteohub,2013-01-30 21:11:00,
2013-01-30 15:14:00,52.0,25.2,-100.00,NW,322,16.0,24.0,35,0.00,,,0.00,meteohub,2013-01-30 21:14:00,
2013-01-30 15:15:00,52.0,24.4,-100.00,NNW,335,15.0,24.0,34,0.00,,,0.00,meteohub,2013-01-30 21:15:00,
2013-01-30 15:16:00,52.2,23.9,-100.00,NNW,328,17.0,24.0,33,0.00,,,0.00,meteohub,2013-01-30 21:16:00,
2013-01-30 15:19:00,52.2,21.7,-100.00,NW,319,13.0,24.0,30,0.00,,,0.00,meteohub,2013-01-30 21:19:00,
2013-01-30 15:20:00,52.0,22.3,-100.00,NNW,343,18.0,24.0,31,0.00,,,0.00,meteohub,2013-01-30 21:20:00,
2013-01-30 15:21:00,52.0,21.6,-100.00,NW,307,13.0,24.0,30,0.00,,,0.00,meteohub,2013-01-30 21:21:00,
2013-01-30 15:24:00,52.0,23.0,-100.00,NNW,347,11.0,24.0,32,0.00,,,0.00,meteohub,2013-01-30 21:24:00,
2013-01-30 15:25:00,52.0,23.7,-100.00,NNW,340,13.0,24.0,33,0.00,,,0.00,meteohub,2013-01-30 21:25:00,
2013-01-30 15:27:00,52.0,22.3,-100.00,NNW,346,9.0,23.0,31,0.00,,,0.00,meteohub,2013-01-30 21:27:00,
2013-01-30 15:29:00,52.0,23.0,-100.00,NW,324,14.0,23.0,32,0.00,,,0.00,meteohub,2013-01-30 21:29:00,
2013-01-30 15:30:00,52.2,23.2,-100.00,NNW,332,14.0,23.0,32,0.00,,,0.00,meteohub,2013-01-30 21:30:00,
2013-01-30 15:31:00,52.2,23.2,-100.00,NNW,328,15.0,23.0,32,0.00,,,0.00,meteohub,2013-01-30 21:31:00,
2013-01-30 15:32:00,52.2,23.2,-100.00,NW,321,11.0,23.0,32,0.00,,,0.00,meteohub,2013-01-30 21:32:00,
2013-01-30 15:34:00,52.2,22.5,-100.00,NW,320,9.0,23.0,31,0.00,,,0.00,meteohub,2013-01-30 21:34:00,
2013-01-30 15:35:00,52.0,23.7,-100.00,NNW,340,13.0,23.0,33,0.00,,,0.00,meteohub,2013-01-30 21:35:00,
2013-01-30 15:36:00,52.0,24.4,-100.00,North,350,7.0,20.0,34,0.00,,,0.00,meteohub,2013-01-30 21:36:00,
2013-01-30 15:37:00,52.0,23.7,-100.00,NNW,338,14.0,20.0,33,0.00,,,0.00,meteohub,2013-01-30 21:37:00,
2013-01-30 15:40:00,52.0,25.2,-100.00,NW,315,15.0,20.0,35,0.00,,,0.00,meteohub,2013-01-30 21:40:00,
2013-01-30 15:41:00,52.0,25.2,-100.00,NW,315,9.0,21.0,35,0.00,,,0.00,meteohub,2013-01-30 21:41:00,
2013-01-30 15:42:00,52.0,23.7,-100.00,NNW,331,11.0,21.0,33,0.00,,,0.00,meteohub,2013-01-30 21:42:00,
2013-01-30 15:45:00,52.0,25.2,-100.00,NW,326,13.0,21.0,35,0.00,,,0.00,meteohub,2013-01-30 21:45:00,
2013-01-30 15:46:00,52.0,23.7,-100.00,NW,322,12.0,21.0,33,0.00,,,0.00,meteohub,2013-01-30 21:46:00,
2013-01-30 15:47:00,52.0,23.7,-100.00,NW,318,17.0,21.0,33,0.00,,,0.00,meteohub,2013-01-30 21:47:00,
2013-01-30 15:48:00,52.2,23.9,-100.00,WNW,298,11.0,21.0,33,0.00,,,0.00,meteohub,2013-01-30 21:48:00,
2013-01-30 15:51:00,52.2,23.2,-100.00,North,355,22.0,22.0,32,0.00,,,0.00,meteohub,2013-01-30 21:51:00,
2013-01-30 15:52:00,52.0,22.3,-100.00,NNW,336,10.0,20.0,31,0.00,,,0.00,meteohub,2013-01-30 21:52:00,
2013-01-30 15:53:00,52.0,22.3,-100.00,NNW,333,10.0,20.0,31,0.00,,,0.00,meteohub,2013-01-30 21:53:00,
2013-01-30 15:56:00,51.6,21.9,-100.00,NNW,331,13.0,20.0,31,0.00,,,0.00,meteohub,2013-01-30 21:56:00,
2013-01-30 15:58:00,51.6,22.6,-100.00,NNW,336,15.0,26.0,32,0.00,,,0.00,meteohub,2013-01-30 21:58:00,
2013-01-30 16:01:00,51.4,22.6,-100.00,NW,317,10.0,26.0,32,0.00,,,0.00,meteohub,2013-01-30 22:01:00,
2013-01-30 16:02:00,51.4,23.4,-100.00,NNW,338,10.0,26.0,33,0.00,,,0.00,meteohub,2013-01-30 22:02:00,
2013-01-30 16:03:00,51.3,23.9,-100.00,NNW,327,14.0,26.0,34,0.00,,,0.00,meteohub,2013-01-30 22:03:00,
2013-01-30 16:04:00,51.3,23.9,-100.00,NNW,333,15.0,26.0,34,0.00,,,0.00,meteohub,2013-01-30 22:04:00,
2013-01-30 16:06:00,51.1,22.3,-100.00,NW,313,7.0,26.0,32,0.00,,,0.00,meteohub,2013-01-30 22:06:00,
2013-01-30 16:07:00,51.1,22.3,-100.00,NNW,329,11.0,26.0,32,0.00,,,0.00,meteohub,2013-01-30 22:07:00,
2013-01-30 16:08:00,51.1,20.7,-100.00,NW,324,19.0,26.0,30,0.00,,,0.00,meteohub,2013-01-30 22:08:00,
2013-01-30 16:09:00,51.1,20.7,-100.00,NNW,334,21.0,26.0,30,0.00,,,0.00,meteohub,2013-01-30 22:09:00,
2013-01-30 16:11:00,51.1,21.6,-100.00,NW,322,15.0,26.0,31,0.00,,,0.00,meteohub,2013-01-30 22:11:00,
2013-01-30 16:12:00,51.1,21.6,-100.00,NNW,329,19.0,26.0,31,0.00,,,0.00,meteohub,2013-01-30 22:12:00,
2013-01-30 16:14:00,51.1,22.3,-100.00,NNW,341,13.0,26.0,32,0.00,,,0.00,meteohub,2013-01-30 22:14:00,
2013-01-30 16:16:00,51.1,21.6,-100.00,NNW,329,13.0,26.0,31,0.00,,,0.00,meteohub,2013-01-30 22:16:00,
2013-01-30 16:17:00,51.1,20.7,-100.00,NNW,343,18.0,26.0,30,0.00,,,0.00,meteohub,2013-01-30 22:17:00,
2013-01-30 16:19:00,51.1,21.6,-100.00,North,0,15.0,26.0,31,0.00,,,0.00,meteohub,2013-01-30 22:19:00,
2013-01-30 16:21:00,51.1,22.3,-100.00,NNW,333,13.0,26.0,32,0.00,,,0.00,meteohub,2013-01-30 22:21:00,
2013-01-30 16:22:00,51.1,22.3,-100.00,North,355,13.0,26.0,32,0.00,,,0.00,meteohub,2013-01-30 22:22:00,
2013-01-30 16:24:00,51.1,22.3,-100.00,NNW,342,13.0,26.0,32,0.00,,,0.00,meteohub,2013-01-30 22:24:00,
2013-01-30 16:26:00,51.1,21.6,-100.00,NNW,329,12.0,22.0,31,0.00,,,0.00,meteohub,2013-01-30 22:26:00,
2013-01-30 16:27:00,51.1,21.6,-100.00,NNW,329,16.0,22.0,31,0.00,,,0.00,meteohub,2013-01-30 22:27:00,
2013-01-30 16:29:00,51.1,21.6,-100.00,NNW,328,13.0,22.0,31,0.00,,,0.00,meteohub,2013-01-30 22:29:00,
2013-01-30 16:30:00,51.1,23.0,-100.00,NW,321,6.0,22.0,33,0.00,,,0.00,meteohub,2013-01-30 22:30:00,
2013-01-30 16:32:00,51.1,22.3,-100.00,NNW,329,12.0,22.0,32,0.00,,,0.00,meteohub,2013-01-30 22:32:00,
2013-01-30 16:35:00,51.1,22.3,-100.00,NNW,330,12.0,22.0,32,0.00,,,0.00,meteohub,2013-01-30 22:35:00,
2013-01-30 16:36:00,51.1,23.0,-100.00,North,355,12.0,22.0,33,0.00,,,0.00,meteohub,2013-01-30 22:36:00,
2013-01-30 16:37:00,51.1,23.0,-100.00,NNW,338,12.0,22.0,33,0.00,,,0.00,meteohub,2013-01-30 22:37:00,
2013-01-30 16:40:00,50.7,21.9,-100.00,NNW,331,15.0,22.0,32,0.00,,,0.00,meteohub,2013-01-30 22:40:00,
2013-01-30 16:41:00,50.7,21.9,-100.00,NW,325,18.0,21.0,32,0.00,,,0.00,meteohub,2013-01-30 22:41:00,
2013-01-30 16:42:00,50.7,21.2,-100.00,NW,315,16.0,21.0,31,0.00,,,0.00,meteohub,2013-01-30 22:42:00,
2013-01-30 16:43:00,50.7,21.2,-100.00,NNW,336,15.0,21.0,31,0.00,,,0.00,meteohub,2013-01-30 22:43:00,
2013-01-30 16:45:00,50.5,21.7,-100.00,NNW,333,15.0,21.0,32,0.00,,,0.00,meteohub,2013-01-30 22:45:00,
2013-01-30 16:46:00,50.5,22.5,-100.00,NW,321,10.0,21.0,33,0.00,,,0.00,meteohub,2013-01-30 22:46:00,
2013-01-30 16:47:00,50.5,21.7,-100.00,NNW,337,13.0,21.0,32,0.00,,,0.00,meteohub,2013-01-30 22:47:00,
2013-01-30 16:48:00,50.5,22.5,-100.00,NW,319,12.0,21.0,33,0.00,,,0.00,meteohub,2013-01-30 22:48:00,
2013-01-30 16:50:00,50.5,21.7,-100.00,NNW,329,17.0,21.0,32,0.00,,,0.00,meteohub,2013-01-30 22:50:00,
2013-01-30 16:52:00,50.5,21.7,-100.00,WNW,292,16.0,21.0,32,0.00,,,0.00,meteohub,2013-01-30 22:52:00,
2013-01-30 16:53:00,50.5,21.7,-100.00,WNW,302,13.0,21.0,32,0.00,,,0.00,meteohub,2013-01-30 22:53:00,
2013-01-30 16:55:00,50.5,21.7,-100.00,NW,322,7.0,21.0,32,0.00,,,0.00,meteohub,2013-01-30 22:55:00,
2013-01-30 16:57:00,50.5,21.7,-100.00,NW,324,9.0,21.0,32,0.00,,,0.00,meteohub,2013-01-30 22:57:00,
2013-01-30 16:58:00,50.4,22.3,-100.00,NNW,327,15.0,21.0,33,0.00,,,0.00,meteohub,2013-01-30 22:58:00,
2013-01-30 17:00:00,50.4,20.8,-100.00,NW,321,10.0,21.0,31,0.00,,,0.00,meteohub,2013-01-30 23:00:00,
2013-01-30 17:02:00,50.2,20.7,-100.00,NNW,331,12.0,20.0,31,0.00,,,0.00,meteohub,2013-01-30 23:02:00,
2013-01-30 17:03:00,50.2,21.4,-100.00,NW,317,14.0,20.0,32,0.00,,,0.00,meteohub,2013-01-30 23:03:00,
2013-01-30 17:04:00,50.2,21.4,-100.00,NW,318,6.0,20.0,32,0.00,,,0.00,meteohub,2013-01-30 23:04:00,
2013-01-30 17:05:00,50.2,22.1,-100.00,NNW,329,6.0,20.0,33,0.00,,,0.00,meteohub,2013-01-30 23:05:00,
2013-01-30 17:07:00,49.8,21.9,-100.00,NW,320,10.0,18.0,33,0.00,,,0.00,meteohub,2013-01-30 23:07:00,
2013-01-30 17:08:00,49.8,21.2,-100.00,NNW,338,17.0,18.0,32,0.00,,,0.00,meteohub,2013-01-30 23:08:00,
2013-01-30 17:09:00,49.8,21.2,-100.00,NNW,327,6.0,18.0,32,0.00,,,0.00,meteohub,2013-01-30 23:09:00,
2013-01-30 17:11:00,49.8,22.6,-100.00,NW,313,9.0,19.0,34,0.00,,,0.00,meteohub,2013-01-30 23:11:00,
2013-01-30 17:13:00,49.8,20.3,-100.00,NW,310,13.0,19.0,31,0.00,,,0.00,meteohub,2013-01-30 23:13:00,
2013-01-30 17:14:00,49.8,20.3,-100.00,WNW,298,15.0,19.0,31,0.00,,,0.00,meteohub,2013-01-30 23:14:00,
2013-01-30 17:17:00,49.8,20.3,-100.00,WNW,298,12.0,19.0,31,0.00,,,0.00,meteohub,2013-01-30 23:17:00,
2013-01-30 17:19:00,49.8,20.3,-100.00,NW,308,10.0,19.0,31,0.00,,,0.00,meteohub,2013-01-30 23:19:00,
2013-01-30 17:20:00,49.8,20.3,-100.00,NW,316,12.0,19.0,31,0.00,,,0.00,meteohub,2013-01-30 23:20:00,
2013-01-30 17:22:00,49.6,20.3,-100.00,WNW,295,13.0,21.0,31,0.00,,,0.00,meteohub,2013-01-30 23:22:00,
2013-01-30 17:24:00,49.6,20.3,-100.00,NNW,329,15.0,21.0,31,0.00,,,0.00,meteohub,2013-01-30 23:24:00,
2013-01-30 17:25:00,49.6,19.4,-100.00,NW,325,12.0,21.0,30,0.00,,,0.00,meteohub,2013-01-30 23:25:00,
2013-01-30 17:27:00,49.5,21.6,-100.00,NW,318,9.0,21.0,33,0.00,,,0.00,meteohub,2013-01-30 23:27:00,
2013-01-30 17:29:00,49.5,21.6,-100.00,NW,317,11.0,21.0,33,0.00,,,0.00,meteohub,2013-01-30 23:29:00,
2013-01-30 17:30:00,49.5,20.8,-100.00,NW,325,11.0,21.0,32,0.00,,,0.00,meteohub,2013-01-30 23:30:00,
2013-01-30 17:31:00,49.5,21.6,-100.00,NNW,328,13.0,21.0,33,0.00,,,0.00,meteohub,2013-01-30 23:31:00,
2013-01-30 17:32:00,49.5,20.1,-100.00,NNW,332,14.0,20.0,31,0.00,,,0.00,meteohub,2013-01-30 23:32:00,
2013-01-30 17:35:00,49.5,20.1,-100.00,NNW,331,17.0,20.0,31,0.00,,,0.00,meteohub,2013-01-30 23:35:00,
2013-01-30 17:37:00,49.5,20.1,-100.00,NW,305,14.0,22.0,31,0.00,,,0.00,meteohub,2013-01-30 23:37:00,
2013-01-30 17:40:00,49.5,20.8,-100.00,NW,323,10.0,22.0,32,0.00,,,0.00,meteohub,2013-01-30 23:40:00,
2013-01-30 17:41:00,49.3,20.7,-100.00,NW,313,6.0,22.0,32,0.00,,,0.00,meteohub,2013-01-30 23:41:00,
2013-01-30 17:42:00,49.3,20.7,-100.00,NW,315,11.0,22.0,32,0.00,,,0.00,meteohub,2013-01-30 23:42:00,
2013-01-30 17:43:00,49.3,20.7,-100.00,NW,313,12.0,22.0,32,0.00,,,0.00,meteohub,2013-01-30 23:43:00,
2013-01-30 17:45:00,49.1,20.5,-100.00,NW,309,17.0,22.0,32,0.00,,,0.00,meteohub,2013-01-30 23:45:00,
2013-01-30 17:46:00,49.1,20.5,-100.00,NW,318,8.0,22.0,32,0.00,,,0.00,meteohub,2013-01-30 23:46:00,
2013-01-30 17:47:00,49.1,20.5,-100.00,NNW,327,10.0,22.0,32,0.00,,,0.00,meteohub,2013-01-30 23:47:00,
2013-01-30 17:48:00,49.1,20.5,-100.00,NW,326,8.0,22.0,32,0.00,,,0.00,meteohub,2013-01-30 23:48:00,
2013-01-30 17:50:00,48.9,21.7,-100.00,NW,314,12.0,22.0,34,0.00,,,0.00,meteohub,2013-01-30 23:50:00,
2013-01-30 17:51:00,48.9,21.0,-100.00,NNW,327,11.0,18.0,33,0.00,,,0.00,meteohub,2013-01-30 23:51:00,
2013-01-30 17:52:00,48.7,21.6,-100.00,NW,324,10.0,18.0,34,0.00,,,0.00,meteohub,2013-01-30 23:52:00,
2013-01-30 17:54:00,48.7,20.8,-100.00,NW,317,7.0,18.0,33,0.00,,,0.00,meteohub,2013-01-30 23:54:00,
2013-01-30 17:55:00,48.7,21.6,-100.00,NNW,338,10.0,18.0,34,0.00,,,0.00,meteohub,2013-01-30 23:55:00,
2013-01-30 17:56:00,48.7,21.6,-100.00,NW,304,6.0,18.0,34,0.00,,,0.00,meteohub,2013-01-30 23:56:00,
2013-01-30 17:58:00,48.7,22.3,-100.00,WNW,303,5.0,18.0,35,0.00,,,0.00,meteohub,2013-01-30 23:58:00,
2013-01-30 17:59:00,48.6,22.1,-100.00,NW,313,5.0,18.0,35,0.00,,,0.00,meteohub,2013-01-30 23:59:00,
2013-01-30 18:00:00,48.6,22.1,-100.00,NW,322,10.0,18.0,35,0.00,,,0.00,meteohub,2013-01-31 00:00:00,
2013-01-30 18:02:00,48.6,22.8,-100.00,WNW,294,10.0,16.0,36,0.00,,,0.00,meteohub,2013-01-31 00:02:00,
2013-01-30 18:03:00,48.4,21.9,-100.00,WNW,296,14.0,16.0,35,0.00,,,0.00,meteohub,2013-01-31 00:03:00,
2013-01-30 18:04:00,48.4,21.9,-100.00,NW,311,6.0,16.0,35,0.00,,,0.00,meteohub,2013-01-31 00:04:00,
2013-01-30 18:06:00,48.4,21.9,-100.00,NNW,327,7.0,16.0,35,0.00,,,0.00,meteohub,2013-01-31 00:06:00,
2013-01-30 18:07:00,48.4,21.9,-100.00,NW,326,6.0,16.0,35,0.00,,,0.00,meteohub,2013-01-31 00:07:00,
2013-01-30 18:08:00,48.4,21.9,-100.00,NW,317,11.0,16.0,35,0.00,,,0.00,meteohub,2013-01-31 00:08:00,
2013-01-30 18:09:00,48.2,21.7,-100.00,NW,311,9.0,16.0,35,0.00,,,0.00,meteohub,2013-01-31 00:09:00,
2013-01-30 18:11:00,48.2,21.7,-100.00,NW,315,8.0,16.0,35,0.00,,,0.00,meteohub,2013-01-31 00:11:00,
2013-01-30 18:12:00,48.2,21.7,-100.00,NW,313,7.0,16.0,35,0.00,,,0.00,meteohub,2013-01-31 00:12:00,
2013-01-30 18:13:00,48.2,21.7,-100.00,NW,313,7.0,16.0,35,0.00,,,0.00,meteohub,2013-01-31 00:13:00,
2013-01-30 18:14:00,48.0,21.7,-100.00,WNW,300,7.0,16.0,35,0.00,,,0.00,meteohub,2013-01-31 00:14:00,
2013-01-30 18:16:00,48.0,21.7,-100.00,WNW,300,7.0,16.0,35,0.00,,,0.00,meteohub,2013-01-31 00:16:00,
2013-01-30 18:18:00,48.0,21.7,-100.00,WNW,303,9.0,16.0,35,0.00,,,0.00,meteohub,2013-01-31 00:18:00,
2013-01-30 18:19:00,47.8,21.6,-100.00,NW,306,10.0,16.0,35,0.00,,,0.00,meteohub,2013-01-31 00:19:00,
2013-01-30 18:21:00,47.8,21.6,-100.00,WNW,302,12.0,16.0,35,0.00,,,0.00,meteohub,2013-01-31 00:21:00,
2013-01-30 18:23:00,47.7,21.4,-100.00,NW,311,6.0,12.0,35,0.00,,,0.00,meteohub,2013-01-31 00:23:00,
2013-01-30 18:24:00,47.7,21.4,-100.00,NW,315,14.0,14.0,35,0.00,,,0.00,meteohub,2013-01-31 00:24:00,
2013-01-30 18:26:00,47.7,20.7,-100.00,NW,325,5.0,17.0,34,0.00,,,0.00,meteohub,2013-01-31 00:26:00,
2013-01-30 18:28:00,47.8,20.8,-100.00,NNW,333,9.0,17.0,34,0.00,,,0.00,meteohub,2013-01-31 00:28:00,
2013-01-30 18:29:00,47.8,20.8,-100.00,NW,320,4.0,17.0,34,0.00,,,0.00,meteohub,2013-01-31 00:29:00,
2013-01-30 18:31:00,47.8,21.6,-100.00,NW,319,4.0,17.0,35,0.00,,,0.00,meteohub,2013-01-31 00:31:00,
2013-01-30 18:33:00,47.7,21.4,-100.00,NW,311,5.0,17.0,35,0.00,,,0.00,meteohub,2013-01-31 00:33:00,
2013-01-30 18:34:00,47.7,21.4,-100.00,NW,309,3.0,17.0,35,0.00,,,0.00,meteohub,2013-01-31 00:34:00,
2013-01-30 18:35:00,47.7,21.4,-100.00,NW,307,4.0,17.0,35,0.00,,,0.00,meteohub,2013-01-31 00:35:00,
2013-01-30 18:36:00,47.7,21.4,-100.00,NW,316,5.0,17.0,35,0.00,,,0.00,meteohub,2013-01-31 00:36:00,
2013-01-30 18:38:00,47.7,21.4,-100.00,NNW,333,12.0,17.0,35,0.00,,,0.00,meteohub,2013-01-31 00:38:00,
2013-01-30 18:39:00,47.7,21.4,-100.00,NW,325,5.0,17.0,35,0.00,,,0.00,meteohub,2013-01-31 00:39:00,
2013-01-30 18:41:00,47.7,21.4,-100.00,NW,313,6.0,14.0,35,0.00,,,0.00,meteohub,2013-01-31 00:41:00,
2013-01-30 18:43:00,47.5,21.2,-100.00,NW,309,6.0,14.0,35,0.00,,,0.00,meteohub,2013-01-31 00:43:00,
2013-01-30 18:44:00,47.3,21.7,-100.00,NW,309,6.0,14.0,36,0.00,,,0.00,meteohub,2013-01-31 00:44:00,
2013-01-30 18:46:00,47.3,21.0,-100.00,NW,307,9.0,13.0,35,0.00,,,0.00,meteohub,2013-01-31 00:46:00,
2013-01-30 18:47:00,47.3,21.0,-100.00,NW,306,6.0,13.0,35,0.00,,,0.00,meteohub,2013-01-31 00:47:00,
2013-01-30 18:48:00,47.3,21.0,-100.00,NW,308,4.0,13.0,35,0.00,,,0.00,meteohub,2013-01-31 00:48:00,
2013-01-30 18:50:00,47.3,21.0,-100.00,NW,312,6.0,13.0,35,0.00,,,0.00,meteohub,2013-01-31 00:50:00,
2013-01-30 18:51:00,47.3,21.0,-100.00,NW,311,6.0,13.0,35,0.00,,,0.00,meteohub,2013-01-31 00:51:00,
2013-01-30 18:52:00,47.1,20.8,-100.00,NW,313,5.0,13.0,35,0.00,,,0.00,meteohub,2013-01-31 00:52:00,
2013-01-30 18:54:00,47.1,20.8,-100.00,NW,312,5.0,13.0,35,0.00,,,0.00,meteohub,2013-01-31 00:54:00,
2013-01-30 18:55:00,47.1,20.8,-100.00,NW,311,5.0,13.0,35,0.00,,,0.00,meteohub,2013-01-31 00:55:00,
2013-01-30 18:56:00,46.9,21.4,-100.00,NW,311,5.0,12.0,36,0.00,,,0.00,meteohub,2013-01-31 00:56:00,
2013-01-30 18:57:00,46.9,20.7,-100.00,NW,311,4.0,12.0,35,0.00,,,0.00,meteohub,2013-01-31 00:57:00,
2013-01-30 18:59:00,46.8,21.2,-100.00,NW,311,4.0,12.0,36,0.00,,,0.00,meteohub,2013-01-31 00:59:00,
2013-01-30 19:00:00,46.8,21.2,-100.00,NW,311,5.0,12.0,36,0.00,,,0.00,meteohub,2013-01-31 01:00:00,
2013-01-30 19:01:00,46.8,21.2,-100.00,NW,311,5.0,12.0,36,0.00,,,0.00,meteohub,2013-01-31 01:01:00,
2013-01-30 19:03:00,46.8,21.2,-100.00,NW,311,4.0,12.0,36,0.00,,,0.00,meteohub,2013-01-31 01:03:00,
2013-01-30 19:04:00,46.8,21.2,-100.00,NW,311,3.0,12.0,36,0.00,,,0.00,meteohub,2013-01-31 01:04:00,
2013-01-30 19:05:00,46.8,21.2,-100.00,NW,311,6.0,12.0,36,0.00,,,0.00,meteohub,2013-01-31 01:05:00,
2013-01-30 19:06:00,46.6,21.0,-100.00,NW,311,4.0,7.0,36,0.00,,,0.00,meteohub,2013-01-31 01:06:00,
2013-01-30 19:08:00,46.6,21.0,-100.00,NW,310,7.0,7.0,36,0.00,,,0.00,meteohub,2013-01-31 01:08:00,
2013-01-30 19:09:00,46.6,21.0,-100.00,NW,310,5.0,7.0,36,0.00,,,0.00,meteohub,2013-01-31 01:09:00,
2013-01-30 19:10:00,46.6,21.0,-100.00,NW,310,4.0,7.0,36,0.00,,,0.00,meteohub,2013-01-31 01:10:00,
2013-01-30 19:12:00,46.4,21.6,-100.00,WNW,303,9.0,9.0,37,0.00,,,0.00,meteohub,2013-01-31 01:12:00,
2013-01-30 19:13:00,46.4,23.4,-100.00,WNW,301,5.0,7.0,40,0.00,,,0.00,meteohub,2013-01-31 01:13:00,
2013-01-30 19:14:00,46.4,20.8,-100.00,WNW,301,6.0,7.0,36,0.00,,,0.00,meteohub,2013-01-31 01:14:00,
2013-01-30 19:15:00,46.4,21.6,-100.00,WNW,301,6.0,7.0,37,0.00,,,0.00,meteohub,2013-01-31 01:15:00,
2013-01-30 19:17:00,46.4,21.6,-100.00,WNW,301,4.0,10.0,37,0.00,,,0.00,meteohub,2013-01-31 01:17:00,
2013-01-30 19:18:00,46.4,21.6,-100.00,WNW,301,5.0,10.0,37,0.00,,,0.00,meteohub,2013-01-31 01:18:00,
2013-01-30 19:19:00,46.4,21.6,-100.00,WNW,301,2.0,10.0,37,0.00,,,0.00,meteohub,2013-01-31 01:19:00,
2013-01-30 19:20:00,46.2,21.4,-100.00,WNW,301,3.0,10.0,37,0.00,,,0.00,meteohub,2013-01-31 01:20:00,
2013-01-30 19:22:00,46.2,21.9,-100.00,WNW,302,3.0,10.0,38,0.00,,,0.00,meteohub,2013-01-31 01:22:00,
2013-01-30 19:23:00,46.0,21.9,-100.00,WNW,301,3.0,10.0,38,0.00,,,0.00,meteohub,2013-01-31 01:23:00,
2013-01-30 19:24:00,46.0,21.9,-100.00,WNW,302,3.0,10.0,38,0.00,,,0.00,meteohub,2013-01-31 01:24:00,
2013-01-30 19:27:00,46.0,21.9,-100.00,WNW,302,3.0,10.0,38,0.00,,,0.00,meteohub,2013-01-31 01:27:00,
2013-01-30 19:28:00,46.0,21.9,-100.00,WNW,302,2.0,10.0,38,0.00,,,0.00,meteohub,2013-01-31 01:28:00,
2013-01-30 19:29:00,45.9,21.7,-100.00,WNW,302,4.0,10.0,38,0.00,,,0.00,meteohub,2013-01-31 01:29:00,
2013-01-30 19:32:00,45.9,22.3,-100.00,WNW,302,4.0,7.0,39,0.00,,,0.00,meteohub,2013-01-31 01:32:00,
2013-01-30 19:34:00,45.9,22.3,-100.00,WNW,302,5.0,7.0,39,0.00,,,0.00,meteohub,2013-01-31 01:34:00,
2013-01-30 19:37:00,45.7,22.1,-100.00,WNW,302,2.0,6.0,39,0.00,,,0.00,meteohub,2013-01-31 01:37:00,
2013-01-30 19:38:00,45.7,22.1,-100.00,WNW,302,3.0,6.0,39,0.00,,,0.00,meteohub,2013-01-31 01:38:00,
2013-01-30 19:39:00,45.5,21.4,-100.00,WNW,302,3.0,6.0,38,0.00,,,0.00,meteohub,2013-01-31 01:39:00,
2013-01-30 19:40:00,45.5,21.4,-100.00,WNW,302,2.0,6.0,38,0.00,,,0.00,meteohub,2013-01-31 01:40:00,
2013-01-30 19:43:00,45.5,21.4,-100.00,WNW,302,3.0,6.0,38,0.00,,,0.00,meteohub,2013-01-31 01:43:00,
2013-01-30 19:44:00,45.5,21.4,-100.00,WNW,302,4.0,6.0,38,0.00,,,0.00,meteohub,2013-01-31 01:44:00,
2013-01-30 19:45:00,45.3,21.2,-100.00,WNW,302,3.0,6.0,38,0.00,,,0.00,meteohub,2013-01-31 01:45:00,
2013-01-30 19:49:00,45.3,21.2,-100.00,WNW,302,2.0,6.0,38,0.00,,,0.00,meteohub,2013-01-31 01:49:00,
2013-01-30 19:50:00,45.3,21.2,-100.00,WNW,302,3.0,6.0,38,0.00,,,0.00,meteohub,2013-01-31 01:50:00,
2013-01-30 19:54:00,45.3,21.2,-100.00,WNW,302,4.0,5.0,38,0.00,,,0.00,meteohub,2013-01-31 01:54:00,
2013-01-30 19:55:00,45.3,21.2,-100.00,WNW,302,4.0,5.0,38,0.00,,,0.00,meteohub,2013-01-31 01:55:00,
2013-01-30 19:59:00,45.5,21.4,-100.00,WNW,302,3.0,5.0,38,0.00,,,0.00,meteohub,2013-01-31 01:59:00,
2013-01-30 20:00:00,45.5,21.4,-100.00,WNW,302,3.0,5.0,38,0.00,,,0.00,meteohub,2013-01-31 02:00:00,
2013-01-30 20:04:00,45.3,21.7,-100.00,WNW,302,3.0,6.0,39,0.00,,,0.00,meteohub,2013-01-31 02:04:00,
2013-01-30 20:05:00,45.3,21.7,-100.00,WNW,302,1.0,6.0,39,0.00,,,0.00,meteohub,2013-01-31 02:05:00,
2013-01-30 20:09:00,45.1,21.7,-100.00,WNW,302,3.0,6.0,39,0.00,,,0.00,meteohub,2013-01-31 02:09:00,
2013-01-30 20:10:00,45.1,21.7,-100.00,WNW,302,3.0,6.0,39,0.00,,,0.00,meteohub,2013-01-31 02:10:00,
2013-01-30 20:11:00,45.1,21.7,-100.00,WNW,302,2.0,6.0,39,0.00,,,0.00,meteohub,2013-01-31 02:11:00,
2013-01-30 20:14:00,45.1,21.7,-100.00,WNW,302,3.0,6.0,39,0.00,,,0.00,meteohub,2013-01-31 02:14:00,
2013-01-30 20:15:00,45.1,21.7,-100.00,WNW,302,3.0,6.0,39,0.00,,,0.00,meteohub,2013-01-31 02:15:00,
2013-01-30 20:16:00,45.1,21.7,-100.00,WNW,302,3.0,5.0,39,0.00,,,0.00,meteohub,2013-01-31 02:16:00,
2013-01-30 20:20:00,45.0,22.1,-100.00,WNW,302,2.0,5.0,40,0.00,,,0.00,meteohub,2013-01-31 02:20:00,
2013-01-30 20:21:00,45.0,22.1,-100.00,WNW,302,2.0,4.0,40,0.00,,,0.00,meteohub,2013-01-31 02:21:00,
2013-01-30 20:25:00,44.8,21.9,-100.00,WNW,302,3.0,4.0,40,0.00,,,0.00,meteohub,2013-01-31 02:25:00,
2013-01-30 20:26:00,44.8,21.4,-100.00,WNW,302,2.0,4.0,39,0.00,,,0.00,meteohub,2013-01-31 02:26:00,
2013-01-30 20:30:00,44.6,21.7,-100.00,WNW,302,2.0,4.0,40,0.00,,,0.00,meteohub,2013-01-31 02:30:00,
2013-01-30 20:31:00,44.6,21.7,-100.00,WNW,302,2.0,4.0,40,0.00,,,0.00,meteohub,2013-01-31 02:31:00,
2013-01-30 20:35:00,44.2,22.1,-100.00,WNW,302,1.0,4.0,41,0.00,,,0.00,meteohub,2013-01-31 02:35:00,
2013-01-30 20:36:00,44.2,22.1,-100.00,WNW,302,0.0,4.0,41,0.00,,,0.00,meteohub,2013-01-31 02:36:00,
2013-01-30 20:37:00,44.2,22.1,-100.00,WNW,302,1.0,3.0,41,0.00,,,0.00,meteohub,2013-01-31 02:37:00,
2013-01-30 20:40:00,43.9,22.3,-100.00,WNW,302,1.0,3.0,42,0.00,,,0.00,meteohub,2013-01-31 02:40:00,
2013-01-30 20:41:00,43.9,22.3,-100.00,WNW,302,1.0,3.0,42,0.00,,,0.00,meteohub,2013-01-31 02:41:00,
2013-01-30 20:42:00,43.9,22.3,-100.00,WNW,302,1.0,3.0,42,0.00,,,0.00,meteohub,2013-01-31 02:42:00,
2013-01-30 20:45:00,43.5,21.9,-100.00,WNW,302,2.0,3.0,42,0.00,,,0.00,meteohub,2013-01-31 02:45:00,
2013-01-30 20:46:00,43.5,21.9,-100.00,WNW,302,1.0,3.0,42,0.00,,,0.00,meteohub,2013-01-31 02:46:00,
2013-01-30 20:47:00,43.3,21.7,-100.00,WNW,302,1.0,3.0,42,0.00,,,0.00,meteohub,2013-01-31 02:47:00,
2013-01-30 20:51:00,43.0,22.1,-100.00,WNW,302,2.0,3.0,43,0.00,,,0.00,meteohub,2013-01-31 02:51:00,
2013-01-30 20:52:00,43.0,22.1,-100.00,WNW,302,1.0,2.0,43,0.00,,,0.00,meteohub,2013-01-31 02:52:00,
2013-01-30 20:56:00,42.4,22.6,-100.00,WNW,302,2.0,2.0,45,0.00,,,0.00,meteohub,2013-01-31 02:56:00,
2013-01-30 20:57:00,42.3,22.5,-100.00,WNW,302,2.0,2.0,45,0.00,,,0.00,meteohub,2013-01-31 02:57:00,
2013-01-30 21:01:00,42.3,23.0,-100.00,WNW,302,2.0,3.0,46,0.00,,,0.00,meteohub,2013-01-31 03:01:00,
2013-01-30 21:02:00,42.3,23.0,-100.00,WNW,302,1.0,3.0,46,0.00,,,0.00,meteohub,2013-01-31 03:02:00,
2013-01-30 21:04:00,42.3,23.0,-100.00,WNW,302,3.0,3.0,46,0.00,,,0.00,meteohub,2013-01-31 03:04:00,
2013-01-30 21:07:00,42.3,23.0,-100.00,WNW,302,1.0,3.0,46,0.00,,,0.00,meteohub,2013-01-31 03:07:00,
2013-01-30 21:09:00,42.3,23.0,-100.00,WNW,302,2.0,3.0,46,0.00,,,0.00,meteohub,2013-01-31 03:09:00,
2013-01-30 21:12:00,42.3,23.0,-100.00,WNW,302,1.0,4.0,46,0.00,,,0.00,meteohub,2013-01-31 03:12:00,
2013-01-30 21:14:00,42.3,23.0,-100.00,WNW,302,2.0,4.0,46,0.00,,,0.00,meteohub,2013-01-31 03:14:00,
2013-01-30 21:17:00,42.3,23.0,-100.00,WNW,302,0.0,4.0,46,0.00,,,0.00,meteohub,2013-01-31 03:17:00,
2013-01-30 21:19:00,42.3,23.0,-100.00,WNW,302,1.0,4.0,46,0.00,,,0.00,meteohub,2013-01-31 03:19:00,
2013-01-30 21:22:00,42.3,23.0,-100.00,WNW,302,2.0,2.0,46,0.00,,,0.00,meteohub,2013-01-31 03:22:00,
2013-01-30 21:25:00,42.3,23.0,-100.00,WNW,302,2.0,2.0,46,0.00,,,0.00,meteohub,2013-01-31 03:25:00,
2013-01-30 21:27:00,42.3,23.5,-100.00,WNW,302,1.0,3.0,47,0.00,,,0.00,meteohub,2013-01-31 03:27:00,
2013-01-30 21:28:00,42.3,23.5,-100.00,WNW,302,1.0,3.0,47,0.00,,,0.00,meteohub,2013-01-31 03:28:00,
2013-01-30 21:30:00,42.3,23.5,-100.00,WNW,302,2.0,3.0,47,0.00,,,0.00,meteohub,2013-01-31 03:30:00,
2013-01-30 21:32:00,42.3,23.5,-100.00,WNW,302,1.0,3.0,47,0.00,,,0.00,meteohub,2013-01-31 03:32:00,
2013-01-30 21:33:00,42.1,23.4,-100.00,WNW,302,1.0,3.0,47,0.00,,,0.00,meteohub,2013-01-31 03:33:00,
2013-01-30 21:36:00,42.1,23.7,-100.00,WNW,302,3.0,3.0,48,0.00,,,0.00,meteohub,2013-01-31 03:36:00,
2013-01-30 21:38:00,41.9,23.7,-100.00,WNW,302,2.0,3.0,48,0.00,,,0.00,meteohub,2013-01-31 03:38:00,
2013-01-30 21:39:00,41.9,23.7,-100.00,WNW,302,3.0,3.0,48,0.00,,,0.00,meteohub,2013-01-31 03:39:00,
2013-01-30 21:42:00,41.7,23.9,-100.00,WNW,302,3.0,4.0,49,0.00,,,0.00,meteohub,2013-01-31 03:42:00,
2013-01-30 21:43:00,41.5,23.7,-100.00,WNW,302,2.0,4.0,49,0.00,,,0.00,meteohub,2013-01-31 03:43:00,
2013-01-30 21:44:00,41.5,23.7,-100.00,WNW,302,2.0,4.0,49,0.00,,,0.00,meteohub,2013-01-31 03:44:00,
2013-01-30 21:47:00,41.5,23.7,-100.00,WNW,302,3.0,4.0,49,0.00,,,0.00,meteohub,2013-01-31 03:47:00,
2013-01-30 21:48:00,41.5,24.3,-100.00,WNW,302,3.0,4.0,50,0.00,,,0.00,meteohub,2013-01-31 03:48:00,
2013-01-30 21:49:00,41.4,24.1,-100.00,WNW,302,2.0,4.0,50,0.00,,,0.00,meteohub,2013-01-31 03:49:00,
2013-01-30 21:52:00,41.2,23.9,-100.00,WNW,302,2.0,4.0,50,0.00,,,0.00,meteohub,2013-01-31 03:52:00,
2013-01-30 21:54:00,41.2,23.9,-100.00,WNW,302,2.0,4.0,50,0.00,,,0.00,meteohub,2013-01-31 03:54:00,
2013-01-30 21:57:00,40.8,23.5,-100.00,WNW,302,4.0,4.0,50,0.00,,,0.00,meteohub,2013-01-31 03:57:00,
2013-01-30 21:59:00,40.8,23.5,-100.00,WNW,302,3.0,4.0,50,0.00,,,0.00,meteohub,2013-01-31 03:59:00,
2013-01-30 22:00:00,40.8,23.5,-100.00,WNW,302,2.0,4.0,50,0.00,,,0.00,meteohub,2013-01-31 04:00:00,
2013-01-30 22:03:00,40.6,23.0,-100.00,WNW,302,4.0,5.0,49,0.00,,,0.00,meteohub,2013-01-31 04:03:00,
2013-01-30 22:04:00,40.6,23.0,-100.00,WNW,302,3.0,5.0,49,0.00,,,0.00,meteohub,2013-01-31 04:04:00,
2013-01-30 22:05:00,40.6,23.0,-100.00,WNW,302,2.0,5.0,49,0.00,,,0.00,meteohub,2013-01-31 04:05:00,
2013-01-30 22:06:00,40.6,23.0,-100.00,WNW,302,4.0,5.0,49,0.00,,,0.00,meteohub,2013-01-31 04:06:00,
2013-01-30 22:08:00,40.8,22.6,-100.00,WNW,302,4.0,5.0,48,0.00,,,0.00,meteohub,2013-01-31 04:08:00,
2013-01-30 22:09:00,40.8,22.6,-100.00,WNW,302,3.0,5.0,48,0.00,,,0.00,meteohub,2013-01-31 04:09:00,
2013-01-30 22:10:00,40.8,22.6,-100.00,WNW,302,3.0,5.0,48,0.00,,,0.00,meteohub,2013-01-31 04:10:00,
2013-01-30 22:11:00,40.8,22.6,-100.00,WNW,302,3.0,5.0,48,0.00,,,0.00,meteohub,2013-01-31 04:11:00,
2013-01-30 22:13:00,40.8,22.6,-100.00,WNW,301,2.0,5.0,48,0.00,,,0.00,meteohub,2013-01-31 04:13:00,
2013-01-30 22:14:00,40.8,22.6,-100.00,WNW,301,3.0,5.0,48,0.00,,,0.00,meteohub,2013-01-31 04:14:00,
2013-01-30 22:16:00,40.8,22.6,-100.00,WNW,301,4.0,5.0,48,0.00,,,0.00,meteohub,2013-01-31 04:16:00,
2013-01-30 22:18:00,41.2,23.0,-100.00,WNW,301,3.0,5.0,48,0.00,,,0.00,meteohub,2013-01-31 04:18:00,
2013-01-30 22:19:00,41.2,23.0,-100.00,WNW,301,3.0,5.0,48,0.00,,,0.00,meteohub,2013-01-31 04:19:00,
2013-01-30 22:21:00,41.2,23.0,-100.00,WNW,301,3.0,5.0,48,0.00,,,0.00,meteohub,2013-01-31 04:21:00,
2013-01-30 22:23:00,41.2,23.0,-100.00,WNW,301,3.0,5.0,48,0.00,,,0.00,meteohub,2013-01-31 04:23:00,
2013-01-30 22:24:00,40.8,22.6,-100.00,WNW,301,2.0,5.0,48,0.00,,,0.00,meteohub,2013-01-31 04:24:00,
2013-01-30 22:26:00,40.8,22.6,-100.00,WNW,301,3.0,5.0,48,0.00,,,0.00,meteohub,2013-01-31 04:26:00,
2013-01-30 22:29:00,40.8,22.1,-100.00,WNW,300,5.0,5.0,47,0.00,,,0.00,meteohub,2013-01-31 04:29:00,
2013-01-30 22:31:00,40.8,21.6,-100.00,WNW,296,5.0,5.0,46,0.00,,,0.00,meteohub,2013-01-31 04:31:00,
2013-01-30 22:34:00,40.8,21.6,-100.00,WNW,282,4.0,5.0,46,0.00,,,0.00,meteohub,2013-01-31 04:34:00,
2013-01-30 22:36:00,40.8,21.6,-100.00,West,278,4.0,6.0,46,0.00,,,0.00,meteohub,2013-01-31 04:36:00,
2013-01-30 22:37:00,40.8,21.6,-100.00,West,277,5.0,6.0,46,0.00,,,0.00,meteohub,2013-01-31 04:37:00,
2013-01-30 22:39:00,40.8,21.6,-100.00,West,275,4.0,6.0,46,0.00,,,0.00,meteohub,2013-01-31 04:39:00,
2013-01-30 22:41:00,41.2,21.9,-100.00,West,275,3.0,6.0,46,0.00,,,0.00,meteohub,2013-01-31 04:41:00,
2013-01-30 22:42:00,41.2,21.9,-100.00,West,275,4.0,6.0,46,0.00,,,0.00,meteohub,2013-01-31 04:42:00,
2013-01-30 22:44:00,40.8,21.6,-100.00,West,275,4.0,6.0,46,0.00,,,0.00,meteohub,2013-01-31 04:44:00,
2013-01-30 22:45:00,40.8,21.6,-100.00,West,275,4.0,6.0,46,0.00,,,0.00,meteohub,2013-01-31 04:45:00,
2013-01-30 22:46:00,40.8,21.6,-100.00,West,275,3.0,6.0,46,0.00,,,0.00,meteohub,2013-01-31 04:46:00,
2013-01-30 22:47:00,40.8,21.6,-100.00,West,275,4.0,6.0,46,0.00,,,0.00,meteohub,2013-01-31 04:47:00,
2013-01-30 22:49:00,40.8,22.1,-100.00,West,274,3.0,6.0,47,0.00,,,0.00,meteohub,2013-01-31 04:49:00,
2013-01-30 22:50:00,40.8,22.1,-100.00,West,274,4.0,6.0,47,0.00,,,0.00,meteohub,2013-01-31 04:50:00,
2013-01-30 22:52:00,40.8,22.1,-100.00,West,274,3.0,6.0,47,0.00,,,0.00,meteohub,2013-01-31 04:52:00,
2013-01-30 22:53:00,40.8,22.1,-100.00,West,273,5.0,6.0,47,0.00,,,0.00,meteohub,2013-01-31 04:53:00,
2013-01-30 22:55:00,40.6,21.9,-100.00,West,273,4.0,6.0,47,0.00,,,0.00,meteohub,2013-01-31 04:55:00,
2013-01-30 22:57:00,40.6,21.9,-100.00,West,273,3.0,5.0,47,0.00,,,0.00,meteohub,2013-01-31 04:57:00,
2013-01-30 22:58:00,40.6,22.5,-100.00,West,273,2.0,5.0,48,0.00,,,0.00,meteohub,2013-01-31 04:58:00,
2013-01-30 23:00:00,40.5,22.3,-100.00,West,273,2.0,5.0,48,0.00,,,0.00,meteohub,2013-01-31 05:00:00,
2013-01-30 23:05:00,40.3,22.1,-100.00,West,273,2.0,5.0,48,0.00,,,0.00,meteohub,2013-01-31 05:05:00,
2013-01-30 23:06:00,40.3,22.1,-100.00,West,273,3.0,5.0,48,0.00,,,0.00,meteohub,2013-01-31 05:06:00,
2013-01-30 23:07:00,40.3,22.1,-100.00,West,273,3.0,5.0,48,0.00,,,0.00,meteohub,2013-01-31 05:07:00,
2013-01-30 23:10:00,40.1,22.5,-100.00,West,273,2.0,5.0,49,0.00,,,0.00,meteohub,2013-01-31 05:10:00,
2013-01-30 23:11:00,40.1,22.5,-100.00,West,273,2.0,5.0,49,0.00,,,0.00,meteohub,2013-01-31 05:11:00,
2013-01-30 23:12:00,39.9,22.3,-100.00,West,273,2.0,5.0,49,0.00,,,0.00,meteohub,2013-01-31 05:12:00,
2013-01-30 23:16:00,39.7,22.1,-100.00,West,273,0.0,5.0,49,0.00,,,0.00,meteohub,2013-01-31 05:16:00,
2013-01-30 23:17:00,39.6,21.9,-100.00,West,273,0.0,5.0,49,0.00,,,0.00,meteohub,2013-01-31 05:17:00,
2013-01-30 23:18:00,39.6,21.9,-100.00,West,273,0.0,5.0,49,0.00,,,0.00,meteohub,2013-01-31 05:18:00,
2013-01-30 23:21:00,39.4,22.3,-100.00,West,273,0.0,5.0,50,0.00,,,0.00,meteohub,2013-01-31 05:21:00,
2013-01-30 23:23:00,39.2,22.1,-100.00,West,273,1.0,5.0,50,0.00,,,0.00,meteohub,2013-01-31 05:23:00,
2013-01-30 23:26:00,38.8,21.7,-100.00,West,273,2.0,3.0,50,0.00,,,0.00,meteohub,2013-01-31 05:26:00,
2013-01-30 23:27:00,38.8,21.7,-100.00,West,273,2.0,3.0,50,0.00,,,0.00,meteohub,2013-01-31 05:27:00,
2013-01-30 23:28:00,38.8,21.7,-100.00,West,273,1.0,3.0,50,0.00,,,0.00,meteohub,2013-01-31 05:28:00,
2013-01-30 23:29:00,38.8,22.3,-100.00,West,273,1.0,3.0,51,0.00,,,0.00,meteohub,2013-01-31 05:29:00,
2013-01-30 23:32:00,38.7,22.1,-100.00,West,273,1.0,3.0,51,0.00,,,0.00,meteohub,2013-01-31 05:32:00,
2013-01-30 23:33:00,38.7,22.1,-100.00,West,273,1.0,3.0,51,0.00,,,0.00,meteohub,2013-01-31 05:33:00,
2013-01-30 23:35:00,38.7,22.1,-100.00,West,273,2.0,3.0,51,0.00,,,0.00,meteohub,2013-01-31 05:35:00,
2013-01-30 23:37:00,38.5,21.9,-100.00,West,273,1.0,3.0,51,0.00,,,0.00,meteohub,2013-01-31 05:37:00,
2013-01-30 23:39:00,38.5,22.5,-100.00,West,273,2.0,3.0,52,0.00,,,0.00,meteohub,2013-01-31 05:39:00,
2013-01-30 23:40:00,38.5,21.9,-100.00,West,273,3.0,3.0,51,0.00,,,0.00,meteohub,2013-01-31 05:40:00,
2013-01-30 23:42:00,38.5,21.9,-100.00,West,273,0.0,3.0,51,0.00,,,0.00,meteohub,2013-01-31 05:42:00,
2013-01-30 23:44:00,38.3,22.3,-100.00,West,273,2.0,3.0,52,0.00,,,0.00,meteohub,2013-01-31 05:44:00,
2013-01-30 23:46:00,38.3,21.7,-100.00,West,273,2.0,3.0,51,0.00,,,0.00,meteohub,2013-01-31 05:46:00,
2013-01-30 23:47:00,38.3,22.3,-100.00,West,273,3.0,3.0,52,0.00,,,0.00,meteohub,2013-01-31 05:47:00,
2013-01-30 23:50:00,38.3,21.7,-100.00,West,273,2.0,3.0,51,0.00,,,0.00,meteohub,2013-01-31 05:50:00,
2013-01-30 23:51:00,38.3,22.3,-100.00,West,273,2.0,4.0,52,0.00,,,0.00,meteohub,2013-01-31 05:51:00,
2013-01-30 23:52:00,38.3,22.3,-100.00,West,273,2.0,4.0,52,0.00,,,0.00,meteohub,2013-01-31 05:52:00,
2013-01-30 23:53:00,38.3,22.3,-100.00,West,273,2.0,4.0,52,0.00,,,0.00,meteohub,2013-01-31 05:53:00,
2013-01-30 23:55:00,38.3,22.3,-100.00,West,273,2.0,4.0,52,0.00,,,0.00,meteohub,2013-01-31 05:55:00,
2013-01-30 23:57:00,38.3,22.3,-100.00,West,273,2.0,4.0,52,0.00,,,0.00,meteohub,2013-01-31 05:57:00,
2013-01-30 23:58:00,38.3,22.3,-100.00,West,273,3.0,4.0,52,0.00,,,0.00,meteohub,2013-01-31 05:58:00,